<?xml version="1.0" encoding="UTF-8" standalone="no" ?>
<gpx xmlns="http://www.topografix.com/GPX/1/1" xmlns:xsi="http://www.w3.org/2001/XMLSchema-instance" xsi:schemaLocation="http://www.topografix.com/GPX/1/1 http://www.topografix.com/GPX/1/1/gpx.xsd" version="1.1" creator="VisuGPX - https://www.visugpx.com">
  <metadata>
    <name>Villeneuve les Avignon</name>
    <desc><![CDATA[VTT Gard villeneuve les avignon 30kms]]></desc>
  </metadata>
  <trk>
    <name><![CDATA[Autour de Villeneuve-lès-Avignon - 932 - UtagawaVTT.com]]></name>
    <trkseg>
      <trkpt lat="43.97752" lon="4.77148">
        <ele>152.506348</ele>
        <time>2006-10-21T09:09:08Z</time>
      </trkpt>
      <trkpt lat="43.97758" lon="4.77176">
        <ele>151.544922</ele>
        <time>2006-10-21T09:09:28Z</time>
      </trkpt>
      <trkpt lat="43.97759" lon="4.77179">
        <ele>151.544922</ele>
        <time>2006-10-21T09:09:39Z</time>
      </trkpt>
      <trkpt lat="43.97724" lon="4.77209">
        <ele>150.583618</ele>
        <time>2006-10-21T09:09:54Z</time>
      </trkpt>
      <trkpt lat="43.97716" lon="4.77234">
        <ele>150.103027</ele>
        <time>2006-10-21T09:10:02Z</time>
      </trkpt>
      <trkpt lat="43.97736" lon="4.77261">
        <ele>150.103027</ele>
        <time>2006-10-21T09:10:15Z</time>
      </trkpt>
      <trkpt lat="43.97778" lon="4.77228">
        <ele>151.544922</ele>
        <time>2006-10-21T09:10:29Z</time>
      </trkpt>
      <trkpt lat="43.97859" lon="4.77164">
        <ele>154.428955</ele>
        <time>2006-10-21T09:10:57Z</time>
      </trkpt>
      <trkpt lat="43.97883" lon="4.7715">
        <ele>154.909546</ele>
        <time>2006-10-21T09:11:08Z</time>
      </trkpt>
      <trkpt lat="43.97915" lon="4.77115">
        <ele>156.832153</ele>
        <time>2006-10-21T09:11:21Z</time>
      </trkpt>
      <trkpt lat="43.97942" lon="4.77117">
        <ele>157.793579</ele>
        <time>2006-10-21T09:11:30Z</time>
      </trkpt>
      <trkpt lat="43.97982" lon="4.77126">
        <ele>159.716187</ele>
        <time>2006-10-21T09:11:46Z</time>
      </trkpt>
      <trkpt lat="43.98015" lon="4.7714">
        <ele>161.638916</ele>
        <time>2006-10-21T09:12:00Z</time>
      </trkpt>
      <trkpt lat="43.98038" lon="4.7719">
        <ele>165.003418</ele>
        <time>2006-10-21T09:12:19Z</time>
      </trkpt>
      <trkpt lat="43.98025" lon="4.77212">
        <ele>165.003418</ele>
        <time>2006-10-21T09:12:28Z</time>
      </trkpt>
      <trkpt lat="43.98025" lon="4.77237">
        <ele>164.522705</ele>
        <time>2006-10-21T09:12:36Z</time>
      </trkpt>
      <trkpt lat="43.98009" lon="4.7726">
        <ele>164.042114</ele>
        <time>2006-10-21T09:12:43Z</time>
      </trkpt>
      <trkpt lat="43.97991" lon="4.77285">
        <ele>163.561523</ele>
        <time>2006-10-21T09:12:53Z</time>
      </trkpt>
      <trkpt lat="43.97973" lon="4.77305">
        <ele>163.080811</ele>
        <time>2006-10-21T09:13:01Z</time>
      </trkpt>
      <trkpt lat="43.97933" lon="4.77333">
        <ele>159.235474</ele>
        <time>2006-10-21T09:13:14Z</time>
      </trkpt>
      <trkpt lat="43.97928" lon="4.77336">
        <ele>158.754761</ele>
        <time>2006-10-21T09:13:15Z</time>
      </trkpt>
      <trkpt lat="43.97924" lon="4.77354">
        <ele>157.312866</ele>
        <time>2006-10-21T09:13:20Z</time>
      </trkpt>
      <trkpt lat="43.97944" lon="4.77386">
        <ele>155.870972</ele>
        <time>2006-10-21T09:13:27Z</time>
      </trkpt>
      <trkpt lat="43.97964" lon="4.77423">
        <ele>152.506348</ele>
        <time>2006-10-21T09:13:33Z</time>
      </trkpt>
      <trkpt lat="43.97971" lon="4.77446">
        <ele>150.103027</ele>
        <time>2006-10-21T09:13:38Z</time>
      </trkpt>
      <trkpt lat="43.97943" lon="4.77468">
        <ele>148.661011</ele>
        <time>2006-10-21T09:13:46Z</time>
      </trkpt>
      <trkpt lat="43.97931" lon="4.77466">
        <ele>148.18042</ele>
        <time>2006-10-21T09:13:52Z</time>
      </trkpt>
      <trkpt lat="43.97903" lon="4.77468">
        <ele>148.18042</ele>
        <time>2006-10-21T09:14:05Z</time>
      </trkpt>
      <trkpt lat="43.97872" lon="4.77463">
        <ele>148.661011</ele>
        <time>2006-10-21T09:14:24Z</time>
      </trkpt>
      <trkpt lat="43.97868" lon="4.77484">
        <ele>145.7771</ele>
        <time>2006-10-21T09:14:31Z</time>
      </trkpt>
      <trkpt lat="43.97846" lon="4.77508">
        <ele>144.815796</ele>
        <time>2006-10-21T09:14:49Z</time>
      </trkpt>
      <trkpt lat="43.97837" lon="4.77504">
        <ele>145.296387</ele>
        <time>2006-10-21T09:15:04Z</time>
      </trkpt>
      <trkpt lat="43.97822" lon="4.77488">
        <ele>147.699707</ele>
        <time>2006-10-21T09:15:11Z</time>
      </trkpt>
      <trkpt lat="43.97804" lon="4.77487">
        <ele>147.218994</ele>
        <time>2006-10-21T09:15:19Z</time>
      </trkpt>
      <trkpt lat="43.97796" lon="4.77514">
        <ele>145.296387</ele>
        <time>2006-10-21T09:15:25Z</time>
      </trkpt>
      <trkpt lat="43.97788" lon="4.77543">
        <ele>143.373657</ele>
        <time>2006-10-21T09:15:32Z</time>
      </trkpt>
      <trkpt lat="43.97802" lon="4.77583">
        <ele>140.970459</ele>
        <time>2006-10-21T09:15:49Z</time>
      </trkpt>
      <trkpt lat="43.97814" lon="4.77608">
        <ele>142.412476</ele>
        <time>2006-10-21T09:15:54Z</time>
      </trkpt>
      <trkpt lat="43.97862" lon="4.77617">
        <ele>144.335205</ele>
        <time>2006-10-21T09:16:07Z</time>
      </trkpt>
      <trkpt lat="43.9787" lon="4.77618">
        <ele>144.335205</ele>
        <time>2006-10-21T09:16:09Z</time>
      </trkpt>
      <trkpt lat="43.97885" lon="4.77638">
        <ele>144.335205</ele>
        <time>2006-10-21T09:16:14Z</time>
      </trkpt>
      <trkpt lat="43.97918" lon="4.77699">
        <ele>142.893066</ele>
        <time>2006-10-21T09:16:26Z</time>
      </trkpt>
      <trkpt lat="43.97938" lon="4.77701">
        <ele>144.815796</ele>
        <time>2006-10-21T09:16:34Z</time>
      </trkpt>
      <trkpt lat="43.97961" lon="4.77675">
        <ele>145.7771</ele>
        <time>2006-10-21T09:16:43Z</time>
      </trkpt>
      <trkpt lat="43.97982" lon="4.77683">
        <ele>146.738403</ele>
        <time>2006-10-21T09:16:50Z</time>
      </trkpt>
      <trkpt lat="43.98006" lon="4.77704">
        <ele>147.218994</ele>
        <time>2006-10-21T09:16:58Z</time>
      </trkpt>
      <trkpt lat="43.98022" lon="4.77694">
        <ele>149.622314</ele>
        <time>2006-10-21T09:17:04Z</time>
      </trkpt>
      <trkpt lat="43.98025" lon="4.77693">
        <ele>150.103027</ele>
        <time>2006-10-21T09:17:05Z</time>
      </trkpt>
      <trkpt lat="43.98044" lon="4.77693">
        <ele>150.583618</ele>
        <time>2006-10-21T09:17:12Z</time>
      </trkpt>
      <trkpt lat="43.98081" lon="4.77685">
        <ele>149.622314</ele>
        <time>2006-10-21T09:17:24Z</time>
      </trkpt>
      <trkpt lat="43.98092" lon="4.77704">
        <ele>147.218994</ele>
        <time>2006-10-21T09:17:29Z</time>
      </trkpt>
      <trkpt lat="43.98095" lon="4.77709">
        <ele>146.257813</ele>
        <time>2006-10-21T09:17:30Z</time>
      </trkpt>
      <trkpt lat="43.98104" lon="4.77733">
        <ele>142.412476</ele>
        <time>2006-10-21T09:17:34Z</time>
      </trkpt>
      <trkpt lat="43.98103" lon="4.77762">
        <ele>138.086548</ele>
        <time>2006-10-21T09:17:38Z</time>
      </trkpt>
      <trkpt lat="43.98101" lon="4.7777">
        <ele>138.086548</ele>
        <time>2006-10-21T09:17:39Z</time>
      </trkpt>
      <trkpt lat="43.98106" lon="4.77796">
        <ele>135.683105</ele>
        <time>2006-10-21T09:17:43Z</time>
      </trkpt>
      <trkpt lat="43.98105" lon="4.77826">
        <ele>134.721924</ele>
        <time>2006-10-21T09:17:48Z</time>
      </trkpt>
      <trkpt lat="43.98109" lon="4.77858">
        <ele>135.202515</ele>
        <time>2006-10-21T09:17:54Z</time>
      </trkpt>
      <trkpt lat="43.98105" lon="4.77885">
        <ele>134.241211</ele>
        <time>2006-10-21T09:18:02Z</time>
      </trkpt>
      <trkpt lat="43.98114" lon="4.77919">
        <ele>133.279907</ele>
        <time>2006-10-21T09:18:10Z</time>
      </trkpt>
      <trkpt lat="43.98113" lon="4.77951">
        <ele>130.876709</ele>
        <time>2006-10-21T09:18:17Z</time>
      </trkpt>
      <trkpt lat="43.98123" lon="4.7798">
        <ele>128.473389</ele>
        <time>2006-10-21T09:18:25Z</time>
      </trkpt>
      <trkpt lat="43.9814" lon="4.77987">
        <ele>127.992554</ele>
        <time>2006-10-21T09:18:34Z</time>
      </trkpt>
      <trkpt lat="43.98146" lon="4.7805">
        <ele>126.550659</ele>
        <time>2006-10-21T09:18:45Z</time>
      </trkpt>
      <trkpt lat="43.98145" lon="4.7809">
        <ele>126.550659</ele>
        <time>2006-10-21T09:18:49Z</time>
      </trkpt>
      <trkpt lat="43.98132" lon="4.78137">
        <ele>125.108765</ele>
        <time>2006-10-21T09:18:57Z</time>
      </trkpt>
      <trkpt lat="43.98145" lon="4.78145">
        <ele>124.147339</ele>
        <time>2006-10-21T09:19:00Z</time>
      </trkpt>
      <trkpt lat="43.98166" lon="4.78147">
        <ele>121.744141</ele>
        <time>2006-10-21T09:19:04Z</time>
      </trkpt>
      <trkpt lat="43.98185" lon="4.78141">
        <ele>122.705444</ele>
        <time>2006-10-21T09:19:09Z</time>
      </trkpt>
      <trkpt lat="43.98214" lon="4.78141">
        <ele>121.26355</ele>
        <time>2006-10-21T09:19:16Z</time>
      </trkpt>
      <trkpt lat="43.98228" lon="4.78153">
        <ele>120.302124</ele>
        <time>2006-10-21T09:19:21Z</time>
      </trkpt>
      <trkpt lat="43.98246" lon="4.78138">
        <ele>120.782837</ele>
        <time>2006-10-21T09:19:27Z</time>
      </trkpt>
      <trkpt lat="43.98264" lon="4.78108">
        <ele>122.705444</ele>
        <time>2006-10-21T09:19:37Z</time>
      </trkpt>
      <trkpt lat="43.98275" lon="4.78116">
        <ele>121.744141</ele>
        <time>2006-10-21T09:19:41Z</time>
      </trkpt>
      <trkpt lat="43.98301" lon="4.78151">
        <ele>118.379395</ele>
        <time>2006-10-21T09:19:51Z</time>
      </trkpt>
      <trkpt lat="43.98307" lon="4.78142">
        <ele>119.821411</ele>
        <time>2006-10-21T09:19:55Z</time>
      </trkpt>
      <trkpt lat="43.98309" lon="4.78141">
        <ele>119.34082</ele>
        <time>2006-10-21T09:19:57Z</time>
      </trkpt>
      <trkpt lat="43.98337" lon="4.78153">
        <ele>119.821411</ele>
        <time>2006-10-21T09:20:08Z</time>
      </trkpt>
      <trkpt lat="43.98375" lon="4.78139">
        <ele>119.821411</ele>
        <time>2006-10-21T09:20:21Z</time>
      </trkpt>
      <trkpt lat="43.98445" lon="4.78119">
        <ele>120.302124</ele>
        <time>2006-10-21T09:20:41Z</time>
      </trkpt>
      <trkpt lat="43.98503" lon="4.78088">
        <ele>119.821411</ele>
        <time>2006-10-21T09:20:59Z</time>
      </trkpt>
      <trkpt lat="43.98533" lon="4.78051">
        <ele>120.302124</ele>
        <time>2006-10-21T09:21:13Z</time>
      </trkpt>
      <trkpt lat="43.98518" lon="4.78002">
        <ele>121.26355</ele>
        <time>2006-10-21T09:21:30Z</time>
      </trkpt>
      <trkpt lat="43.98501" lon="4.77981">
        <ele>123.186157</ele>
        <time>2006-10-21T09:21:41Z</time>
      </trkpt>
      <trkpt lat="43.98464" lon="4.77967">
        <ele>123.186157</ele>
        <time>2006-10-21T09:21:57Z</time>
      </trkpt>
      <trkpt lat="43.98451" lon="4.77948">
        <ele>124.147339</ele>
        <time>2006-10-21T09:22:03Z</time>
      </trkpt>
      <trkpt lat="43.98431" lon="4.77912">
        <ele>125.589355</ele>
        <time>2006-10-21T09:22:14Z</time>
      </trkpt>
      <trkpt lat="43.98425" lon="4.77871">
        <ele>127.031372</ele>
        <time>2006-10-21T09:22:24Z</time>
      </trkpt>
      <trkpt lat="43.98416" lon="4.7781">
        <ele>130.876709</ele>
        <time>2006-10-21T09:22:43Z</time>
      </trkpt>
      <trkpt lat="43.98412" lon="4.7777">
        <ele>134.241211</ele>
        <time>2006-10-21T09:22:57Z</time>
      </trkpt>
      <trkpt lat="43.98425" lon="4.7776">
        <ele>134.721924</ele>
        <time>2006-10-21T09:23:06Z</time>
      </trkpt>
      <trkpt lat="43.98442" lon="4.7777">
        <ele>134.241211</ele>
        <time>2006-10-21T09:23:13Z</time>
      </trkpt>
      <trkpt lat="43.98477" lon="4.77811">
        <ele>130.876709</ele>
        <time>2006-10-21T09:23:25Z</time>
      </trkpt>
      <trkpt lat="43.98481" lon="4.77815">
        <ele>131.3573</ele>
        <time>2006-10-21T09:23:26Z</time>
      </trkpt>
      <trkpt lat="43.98515" lon="4.77847">
        <ele>126.550659</ele>
        <time>2006-10-21T09:23:35Z</time>
      </trkpt>
      <trkpt lat="43.98548" lon="4.77887">
        <ele>123.186157</ele>
        <time>2006-10-21T09:23:43Z</time>
      </trkpt>
      <trkpt lat="43.98581" lon="4.77913">
        <ele>122.224731</ele>
        <time>2006-10-21T09:23:49Z</time>
      </trkpt>
      <trkpt lat="43.98608" lon="4.77947">
        <ele>119.821411</ele>
        <time>2006-10-21T09:23:57Z</time>
      </trkpt>
      <trkpt lat="43.98618" lon="4.77944">
        <ele>119.821411</ele>
        <time>2006-10-21T09:24:05Z</time>
      </trkpt>
      <trkpt lat="43.98642" lon="4.7795">
        <ele>118.860107</ele>
        <time>2006-10-21T09:24:11Z</time>
      </trkpt>
      <trkpt lat="43.98692" lon="4.77959">
        <ele>118.379395</ele>
        <time>2006-10-21T09:24:20Z</time>
      </trkpt>
      <trkpt lat="43.98723" lon="4.77974">
        <ele>117.898804</ele>
        <time>2006-10-21T09:24:27Z</time>
      </trkpt>
      <trkpt lat="43.98716" lon="4.77987">
        <ele>118.379395</ele>
        <time>2006-10-21T09:24:31Z</time>
      </trkpt>
      <trkpt lat="43.98684" lon="4.7804">
        <ele>115.495605</ele>
        <time>2006-10-21T09:24:42Z</time>
      </trkpt>
      <trkpt lat="43.98646" lon="4.78077">
        <ele>114.53418</ele>
        <time>2006-10-21T09:24:52Z</time>
      </trkpt>
      <trkpt lat="43.98643" lon="4.7808">
        <ele>114.53418</ele>
        <time>2006-10-21T09:24:53Z</time>
      </trkpt>
      <trkpt lat="43.98621" lon="4.78074">
        <ele>115.495605</ele>
        <time>2006-10-21T09:24:59Z</time>
      </trkpt>
      <trkpt lat="43.98618" lon="4.78082">
        <ele>115.495605</ele>
        <time>2006-10-21T09:25:03Z</time>
      </trkpt>
      <trkpt lat="43.98623" lon="4.78103">
        <ele>115.495605</ele>
        <time>2006-10-21T09:25:09Z</time>
      </trkpt>
      <trkpt lat="43.98649" lon="4.78212">
        <ele>111.169556</ele>
        <time>2006-10-21T09:25:33Z</time>
      </trkpt>
      <trkpt lat="43.98671" lon="4.78253">
        <ele>109.727661</ele>
        <time>2006-10-21T09:25:39Z</time>
      </trkpt>
      <trkpt lat="43.98682" lon="4.78299">
        <ele>107.324341</ele>
        <time>2006-10-21T09:25:47Z</time>
      </trkpt>
      <trkpt lat="43.98667" lon="4.78335">
        <ele>107.324341</ele>
        <time>2006-10-21T09:25:56Z</time>
      </trkpt>
      <trkpt lat="43.98664" lon="4.78345">
        <ele>106.843628</ele>
        <time>2006-10-21T09:25:58Z</time>
      </trkpt>
      <trkpt lat="43.98642" lon="4.78391">
        <ele>105.882446</ele>
        <time>2006-10-21T09:26:09Z</time>
      </trkpt>
      <trkpt lat="43.98653" lon="4.78394">
        <ele>105.882446</ele>
        <time>2006-10-21T09:26:14Z</time>
      </trkpt>
      <trkpt lat="43.98715" lon="4.78407">
        <ele>104.921021</ele>
        <time>2006-10-21T09:26:30Z</time>
      </trkpt>
      <trkpt lat="43.98736" lon="4.78422">
        <ele>105.401733</ele>
        <time>2006-10-21T09:26:37Z</time>
      </trkpt>
      <trkpt lat="43.98752" lon="4.78477">
        <ele>106.843628</ele>
        <time>2006-10-21T09:26:51Z</time>
      </trkpt>
      <trkpt lat="43.98777" lon="4.78529">
        <ele>105.401733</ele>
        <time>2006-10-21T09:27:04Z</time>
      </trkpt>
      <trkpt lat="43.98762" lon="4.78566">
        <ele>105.882446</ele>
        <time>2006-10-21T09:27:13Z</time>
      </trkpt>
      <trkpt lat="43.98738" lon="4.78638">
        <ele>106.363037</ele>
        <time>2006-10-21T09:27:30Z</time>
      </trkpt>
      <trkpt lat="43.98717" lon="4.78674">
        <ele>106.363037</ele>
        <time>2006-10-21T09:27:40Z</time>
      </trkpt>
      <trkpt lat="43.98678" lon="4.78698">
        <ele>105.882446</ele>
        <time>2006-10-21T09:27:50Z</time>
      </trkpt>
      <trkpt lat="43.98656" lon="4.78727">
        <ele>104.921021</ele>
        <time>2006-10-21T09:27:57Z</time>
      </trkpt>
      <trkpt lat="43.98648" lon="4.78771">
        <ele>104.44043</ele>
        <time>2006-10-21T09:28:04Z</time>
      </trkpt>
      <trkpt lat="43.98664" lon="4.78825">
        <ele>101.556396</ele>
        <time>2006-10-21T09:28:13Z</time>
      </trkpt>
      <trkpt lat="43.98675" lon="4.78844">
        <ele>102.037109</ele>
        <time>2006-10-21T09:28:17Z</time>
      </trkpt>
      <trkpt lat="43.98673" lon="4.78868">
        <ele>101.075684</ele>
        <time>2006-10-21T09:28:21Z</time>
      </trkpt>
      <trkpt lat="43.98691" lon="4.78936">
        <ele>101.556396</ele>
        <time>2006-10-21T09:28:41Z</time>
      </trkpt>
      <trkpt lat="43.98695" lon="4.78962">
        <ele>100.595093</ele>
        <time>2006-10-21T09:28:48Z</time>
      </trkpt>
      <trkpt lat="43.98717" lon="4.78996">
        <ele>92.42395</ele>
        <time>2006-10-21T09:29:05Z</time>
      </trkpt>
      <trkpt lat="43.98726" lon="4.79012">
        <ele>88.578735</ele>
        <time>2006-10-21T09:29:15Z</time>
      </trkpt>
      <trkpt lat="43.98735" lon="4.79016">
        <ele>87.136597</ele>
        <time>2006-10-21T09:29:23Z</time>
      </trkpt>
      <trkpt lat="43.98772" lon="4.79037">
        <ele>89.059326</ele>
        <time>2006-10-21T09:29:36Z</time>
      </trkpt>
      <trkpt lat="43.98776" lon="4.79041">
        <ele>88.578735</ele>
        <time>2006-10-21T09:29:38Z</time>
      </trkpt>
      <trkpt lat="43.98774" lon="4.79098">
        <ele>89.059326</ele>
        <time>2006-10-21T09:29:59Z</time>
      </trkpt>
      <trkpt lat="43.98777" lon="4.79135">
        <ele>90.501343</ele>
        <time>2006-10-21T09:30:11Z</time>
      </trkpt>
      <trkpt lat="43.98729" lon="4.79236">
        <ele>91.462524</ele>
        <time>2006-10-21T09:30:37Z</time>
      </trkpt>
      <trkpt lat="43.98714" lon="4.79314">
        <ele>93.385132</ele>
        <time>2006-10-21T09:30:54Z</time>
      </trkpt>
      <trkpt lat="43.98699" lon="4.79353">
        <ele>92.904541</ele>
        <time>2006-10-21T09:31:03Z</time>
      </trkpt>
      <trkpt lat="43.98641" lon="4.79477">
        <ele>90.981934</ele>
        <time>2006-10-21T09:31:28Z</time>
      </trkpt>
      <trkpt lat="43.98617" lon="4.79534">
        <ele>91.943237</ele>
        <time>2006-10-21T09:31:40Z</time>
      </trkpt>
      <trkpt lat="43.98615" lon="4.79539">
        <ele>91.462524</ele>
        <time>2006-10-21T09:31:41Z</time>
      </trkpt>
      <trkpt lat="43.98597" lon="4.79553">
        <ele>90.981934</ele>
        <time>2006-10-21T09:31:46Z</time>
      </trkpt>
      <trkpt lat="43.98527" lon="4.79585">
        <ele>89.539917</ele>
        <time>2006-10-21T09:32:06Z</time>
      </trkpt>
      <trkpt lat="43.98491" lon="4.79607">
        <ele>89.539917</ele>
        <time>2006-10-21T09:32:16Z</time>
      </trkpt>
      <trkpt lat="43.98457" lon="4.79627">
        <ele>88.578735</ele>
        <time>2006-10-21T09:32:31Z</time>
      </trkpt>
      <trkpt lat="43.9843" lon="4.79638">
        <ele>89.539917</ele>
        <time>2006-10-21T09:32:43Z</time>
      </trkpt>
      <trkpt lat="43.98413" lon="4.79641">
        <ele>90.501343</ele>
        <time>2006-10-21T09:32:50Z</time>
      </trkpt>
      <trkpt lat="43.98395" lon="4.79655">
        <ele>92.904541</ele>
        <time>2006-10-21T09:32:58Z</time>
      </trkpt>
      <trkpt lat="43.98363" lon="4.79656">
        <ele>95.307739</ele>
        <time>2006-10-21T09:33:12Z</time>
      </trkpt>
      <trkpt lat="43.98337" lon="4.79661">
        <ele>97.230469</ele>
        <time>2006-10-21T09:33:27Z</time>
      </trkpt>
      <trkpt lat="43.98349" lon="4.79671">
        <ele>97.230469</ele>
        <time>2006-10-21T09:33:36Z</time>
      </trkpt>
      <trkpt lat="43.98369" lon="4.79699">
        <ele>95.788452</ele>
        <time>2006-10-21T09:33:52Z</time>
      </trkpt>
      <trkpt lat="43.98382" lon="4.79712">
        <ele>96.269287</ele>
        <time>2006-10-21T09:34:03Z</time>
      </trkpt>
      <trkpt lat="43.98396" lon="4.79713">
        <ele>95.307739</ele>
        <time>2006-10-21T09:34:09Z</time>
      </trkpt>
      <trkpt lat="43.98399" lon="4.79723">
        <ele>95.307739</ele>
        <time>2006-10-21T09:34:15Z</time>
      </trkpt>
      <trkpt lat="43.98384" lon="4.79736">
        <ele>95.307739</ele>
        <time>2006-10-21T09:34:27Z</time>
      </trkpt>
      <trkpt lat="43.98369" lon="4.7973">
        <ele>96.269287</ele>
        <time>2006-10-21T09:34:42Z</time>
      </trkpt>
      <trkpt lat="43.9837" lon="4.79731">
        <ele>96.749878</ele>
        <time>2006-10-21T09:35:10Z</time>
      </trkpt>
      <trkpt lat="43.98371" lon="4.79731">
        <ele>96.749878</ele>
        <time>2006-10-21T09:35:11Z</time>
      </trkpt>
      <trkpt lat="43.98411" lon="4.79758">
        <ele>95.788452</ele>
        <time>2006-10-21T09:35:25Z</time>
      </trkpt>
      <trkpt lat="43.98441" lon="4.79801">
        <ele>95.788452</ele>
        <time>2006-10-21T09:35:39Z</time>
      </trkpt>
      <trkpt lat="43.98459" lon="4.79815">
        <ele>95.788452</ele>
        <time>2006-10-21T09:35:46Z</time>
      </trkpt>
      <trkpt lat="43.98466" lon="4.79872">
        <ele>96.269287</ele>
        <time>2006-10-21T09:36:01Z</time>
      </trkpt>
      <trkpt lat="43.98469" lon="4.79903">
        <ele>94.827148</ele>
        <time>2006-10-21T09:36:10Z</time>
      </trkpt>
      <trkpt lat="43.98459" lon="4.79939">
        <ele>92.904541</ele>
        <time>2006-10-21T09:36:23Z</time>
      </trkpt>
      <trkpt lat="43.98459" lon="4.79967">
        <ele>93.385132</ele>
        <time>2006-10-21T09:36:35Z</time>
      </trkpt>
      <trkpt lat="43.98443" lon="4.80018">
        <ele>94.827148</ele>
        <time>2006-10-21T09:36:50Z</time>
      </trkpt>
      <trkpt lat="43.98455" lon="4.80049">
        <ele>95.788452</ele>
        <time>2006-10-21T09:36:58Z</time>
      </trkpt>
      <trkpt lat="43.98491" lon="4.80124">
        <ele>98.191895</ele>
        <time>2006-10-21T09:37:20Z</time>
      </trkpt>
      <trkpt lat="43.98548" lon="4.80214">
        <ele>102.037109</ele>
        <time>2006-10-21T09:37:50Z</time>
      </trkpt>
      <trkpt lat="43.98586" lon="4.80285">
        <ele>104.921021</ele>
        <time>2006-10-21T09:38:13Z</time>
      </trkpt>
      <trkpt lat="43.98632" lon="4.8034">
        <ele>109.727661</ele>
        <time>2006-10-21T09:38:33Z</time>
      </trkpt>
      <trkpt lat="43.98657" lon="4.80359">
        <ele>111.169556</ele>
        <time>2006-10-21T09:38:44Z</time>
      </trkpt>
      <trkpt lat="43.98706" lon="4.80386">
        <ele>116.456787</ele>
        <time>2006-10-21T09:39:05Z</time>
      </trkpt>
      <trkpt lat="43.98707" lon="4.80386">
        <ele>116.456787</ele>
        <time>2006-10-21T09:39:06Z</time>
      </trkpt>
      <trkpt lat="43.98716" lon="4.80391">
        <ele>117.898804</ele>
        <time>2006-10-21T09:39:10Z</time>
      </trkpt>
      <trkpt lat="43.9871" lon="4.80403">
        <ele>118.379395</ele>
        <time>2006-10-21T09:39:14Z</time>
      </trkpt>
      <trkpt lat="43.98687" lon="4.80459">
        <ele>119.34082</ele>
        <time>2006-10-21T09:39:34Z</time>
      </trkpt>
      <trkpt lat="43.98687" lon="4.80493">
        <ele>118.379395</ele>
        <time>2006-10-21T09:39:44Z</time>
      </trkpt>
      <trkpt lat="43.98728" lon="4.80522">
        <ele>117.418213</ele>
        <time>2006-10-21T09:39:58Z</time>
      </trkpt>
      <trkpt lat="43.98757" lon="4.80541">
        <ele>116.9375</ele>
        <time>2006-10-21T09:40:07Z</time>
      </trkpt>
      <trkpt lat="43.98778" lon="4.80534">
        <ele>116.9375</ele>
        <time>2006-10-21T09:40:16Z</time>
      </trkpt>
      <trkpt lat="43.98778" lon="4.80529">
        <ele>118.860107</ele>
        <time>2006-10-21T09:40:19Z</time>
      </trkpt>
      <trkpt lat="43.98778" lon="4.80523">
        <ele>119.821411</ele>
        <time>2006-10-21T09:40:22Z</time>
      </trkpt>
      <trkpt lat="43.98793" lon="4.80507">
        <ele>120.782837</ele>
        <time>2006-10-21T09:40:36Z</time>
      </trkpt>
      <trkpt lat="43.98804" lon="4.80494">
        <ele>122.705444</ele>
        <time>2006-10-21T09:40:46Z</time>
      </trkpt>
      <trkpt lat="43.98829" lon="4.80469">
        <ele>126.069946</ele>
        <time>2006-10-21T09:41:01Z</time>
      </trkpt>
      <trkpt lat="43.98863" lon="4.80471">
        <ele>126.550659</ele>
        <time>2006-10-21T09:41:16Z</time>
      </trkpt>
      <trkpt lat="43.98884" lon="4.80452">
        <ele>127.511963</ele>
        <time>2006-10-21T09:41:27Z</time>
      </trkpt>
      <trkpt lat="43.98903" lon="4.80447">
        <ele>127.031372</ele>
        <time>2006-10-21T09:41:35Z</time>
      </trkpt>
      <trkpt lat="43.98934" lon="4.80412">
        <ele>128.473389</ele>
        <time>2006-10-21T09:41:51Z</time>
      </trkpt>
      <trkpt lat="43.98949" lon="4.80407">
        <ele>128.954102</ele>
        <time>2006-10-21T09:41:58Z</time>
      </trkpt>
      <trkpt lat="43.99013" lon="4.80414">
        <ele>130.395996</ele>
        <time>2006-10-21T09:42:24Z</time>
      </trkpt>
      <trkpt lat="43.99053" lon="4.80469">
        <ele>133.279907</ele>
        <time>2006-10-21T09:42:40Z</time>
      </trkpt>
      <trkpt lat="43.99073" lon="4.80479">
        <ele>134.241211</ele>
        <time>2006-10-21T09:42:47Z</time>
      </trkpt>
      <trkpt lat="43.99098" lon="4.80482">
        <ele>135.202515</ele>
        <time>2006-10-21T09:42:56Z</time>
      </trkpt>
      <trkpt lat="43.9911" lon="4.80501">
        <ele>136.16394</ele>
        <time>2006-10-21T09:43:02Z</time>
      </trkpt>
      <trkpt lat="43.99113" lon="4.80532">
        <ele>135.683105</ele>
        <time>2006-10-21T09:43:11Z</time>
      </trkpt>
      <trkpt lat="43.99123" lon="4.80551">
        <ele>136.644653</ele>
        <time>2006-10-21T09:43:22Z</time>
      </trkpt>
      <trkpt lat="43.99164" lon="4.80582">
        <ele>137.605835</ele>
        <time>2006-10-21T09:43:39Z</time>
      </trkpt>
      <trkpt lat="43.99177" lon="4.80583">
        <ele>138.567261</ele>
        <time>2006-10-21T09:43:44Z</time>
      </trkpt>
      <trkpt lat="43.99209" lon="4.80558">
        <ele>141.931763</ele>
        <time>2006-10-21T09:43:57Z</time>
      </trkpt>
      <trkpt lat="43.99253" lon="4.80539">
        <ele>142.412476</ele>
        <time>2006-10-21T09:44:13Z</time>
      </trkpt>
      <trkpt lat="43.99272" lon="4.80527">
        <ele>140.009155</ele>
        <time>2006-10-21T09:44:18Z</time>
      </trkpt>
      <trkpt lat="43.99301" lon="4.80521">
        <ele>138.086548</ele>
        <time>2006-10-21T09:44:26Z</time>
      </trkpt>
      <trkpt lat="43.99305" lon="4.80524">
        <ele>138.086548</ele>
        <time>2006-10-21T09:44:28Z</time>
      </trkpt>
      <trkpt lat="43.99311" lon="4.8053">
        <ele>138.086548</ele>
        <time>2006-10-21T09:44:31Z</time>
      </trkpt>
      <trkpt lat="43.99351" lon="4.80527">
        <ele>140.009155</ele>
        <time>2006-10-21T09:44:47Z</time>
      </trkpt>
      <trkpt lat="43.99383" lon="4.80557">
        <ele>139.528442</ele>
        <time>2006-10-21T09:45:01Z</time>
      </trkpt>
      <trkpt lat="43.99387" lon="4.80614">
        <ele>143.373657</ele>
        <time>2006-10-21T09:45:19Z</time>
      </trkpt>
      <trkpt lat="43.99384" lon="4.80621">
        <ele>143.373657</ele>
        <time>2006-10-21T09:45:21Z</time>
      </trkpt>
      <trkpt lat="43.99364" lon="4.80632">
        <ele>143.85437</ele>
        <time>2006-10-21T09:45:29Z</time>
      </trkpt>
      <trkpt lat="43.9933" lon="4.80684">
        <ele>144.815796</ele>
        <time>2006-10-21T09:45:47Z</time>
      </trkpt>
      <trkpt lat="43.99321" lon="4.80726">
        <ele>144.335205</ele>
        <time>2006-10-21T09:45:57Z</time>
      </trkpt>
      <trkpt lat="43.99306" lon="4.80767">
        <ele>147.218994</ele>
        <time>2006-10-21T09:46:11Z</time>
      </trkpt>
      <trkpt lat="43.99309" lon="4.80777">
        <ele>147.699707</ele>
        <time>2006-10-21T09:46:48Z</time>
      </trkpt>
      <trkpt lat="43.99318" lon="4.80774">
        <ele>145.7771</ele>
        <time>2006-10-21T09:48:41Z</time>
      </trkpt>
      <trkpt lat="43.99333" lon="4.80756">
        <ele>144.815796</ele>
        <time>2006-10-21T09:48:49Z</time>
      </trkpt>
      <trkpt lat="43.99358" lon="4.80715">
        <ele>147.699707</ele>
        <time>2006-10-21T09:49:04Z</time>
      </trkpt>
      <trkpt lat="43.99396" lon="4.80687">
        <ele>150.583618</ele>
        <time>2006-10-21T09:49:22Z</time>
      </trkpt>
      <trkpt lat="43.99416" lon="4.807">
        <ele>151.064209</ele>
        <time>2006-10-21T09:49:30Z</time>
      </trkpt>
      <trkpt lat="43.99422" lon="4.80703">
        <ele>150.583618</ele>
        <time>2006-10-21T09:49:32Z</time>
      </trkpt>
      <trkpt lat="43.99428" lon="4.80692">
        <ele>151.064209</ele>
        <time>2006-10-21T09:49:37Z</time>
      </trkpt>
      <trkpt lat="43.99423" lon="4.80648">
        <ele>152.025757</ele>
        <time>2006-10-21T09:49:51Z</time>
      </trkpt>
      <trkpt lat="43.99417" lon="4.80643">
        <ele>150.583618</ele>
        <time>2006-10-21T09:49:53Z</time>
      </trkpt>
      <trkpt lat="43.99414" lon="4.80639">
        <ele>149.622314</ele>
        <time>2006-10-21T09:49:54Z</time>
      </trkpt>
      <trkpt lat="43.99407" lon="4.80614">
        <ele>145.7771</ele>
        <time>2006-10-21T09:50:00Z</time>
      </trkpt>
      <trkpt lat="43.99426" lon="4.80577">
        <ele>147.218994</ele>
        <time>2006-10-21T09:50:14Z</time>
      </trkpt>
      <trkpt lat="43.9943" lon="4.80571">
        <ele>146.738403</ele>
        <time>2006-10-21T09:50:18Z</time>
      </trkpt>
      <trkpt lat="43.99426" lon="4.80548">
        <ele>145.296387</ele>
        <time>2006-10-21T09:50:23Z</time>
      </trkpt>
      <trkpt lat="43.99391" lon="4.80511">
        <ele>140.970459</ele>
        <time>2006-10-21T09:50:31Z</time>
      </trkpt>
      <trkpt lat="43.99381" lon="4.80487">
        <ele>139.047852</ele>
        <time>2006-10-21T09:50:35Z</time>
      </trkpt>
      <trkpt lat="43.99365" lon="4.80476">
        <ele>135.683105</ele>
        <time>2006-10-21T09:50:42Z</time>
      </trkpt>
      <trkpt lat="43.99368" lon="4.80469">
        <ele>135.683105</ele>
        <time>2006-10-21T09:50:44Z</time>
      </trkpt>
      <trkpt lat="43.99376" lon="4.8042">
        <ele>131.837891</ele>
        <time>2006-10-21T09:50:52Z</time>
      </trkpt>
      <trkpt lat="43.99365" lon="4.80411">
        <ele>129.915283</ele>
        <time>2006-10-21T09:50:56Z</time>
      </trkpt>
      <trkpt lat="43.99364" lon="4.80394">
        <ele>126.550659</ele>
        <time>2006-10-21T09:51:06Z</time>
      </trkpt>
      <trkpt lat="43.99388" lon="4.80373">
        <ele>125.108765</ele>
        <time>2006-10-21T09:51:12Z</time>
      </trkpt>
      <trkpt lat="43.99428" lon="4.80372">
        <ele>123.186157</ele>
        <time>2006-10-21T09:51:19Z</time>
      </trkpt>
      <trkpt lat="43.99465" lon="4.8035">
        <ele>119.821411</ele>
        <time>2006-10-21T09:51:26Z</time>
      </trkpt>
      <trkpt lat="43.99474" lon="4.80291">
        <ele>116.456787</ele>
        <time>2006-10-21T09:51:34Z</time>
      </trkpt>
      <trkpt lat="43.99484" lon="4.80237">
        <ele>114.53418</ele>
        <time>2006-10-21T09:51:40Z</time>
      </trkpt>
      <trkpt lat="43.99483" lon="4.80159">
        <ele>111.169556</ele>
        <time>2006-10-21T09:51:48Z</time>
      </trkpt>
      <trkpt lat="43.9948" lon="4.80138">
        <ele>111.169556</ele>
        <time>2006-10-21T09:51:51Z</time>
      </trkpt>
      <trkpt lat="43.99475" lon="4.80127">
        <ele>110.688843</ele>
        <time>2006-10-21T09:51:56Z</time>
      </trkpt>
      <trkpt lat="43.99488" lon="4.80115">
        <ele>110.208252</ele>
        <time>2006-10-21T09:52:01Z</time>
      </trkpt>
      <trkpt lat="43.99544" lon="4.80117">
        <ele>110.688843</ele>
        <time>2006-10-21T09:52:15Z</time>
      </trkpt>
      <trkpt lat="43.99607" lon="4.80094">
        <ele>112.611572</ele>
        <time>2006-10-21T09:52:34Z</time>
      </trkpt>
      <trkpt lat="43.9967" lon="4.80072">
        <ele>113.092285</ele>
        <time>2006-10-21T09:52:53Z</time>
      </trkpt>
      <trkpt lat="43.99723" lon="4.80066">
        <ele>114.53418</ele>
        <time>2006-10-21T09:53:09Z</time>
      </trkpt>
      <trkpt lat="43.99788" lon="4.80059">
        <ele>115.976196</ele>
        <time>2006-10-21T09:53:30Z</time>
      </trkpt>
      <trkpt lat="43.99844" lon="4.80021">
        <ele>118.860107</ele>
        <time>2006-10-21T09:53:51Z</time>
      </trkpt>
      <trkpt lat="43.99851" lon="4.80022">
        <ele>118.379395</ele>
        <time>2006-10-21T09:53:55Z</time>
      </trkpt>
      <trkpt lat="43.99856" lon="4.80042">
        <ele>120.302124</ele>
        <time>2006-10-21T09:54:05Z</time>
      </trkpt>
      <trkpt lat="43.99856" lon="4.80045">
        <ele>120.302124</ele>
        <time>2006-10-21T09:54:06Z</time>
      </trkpt>
      <trkpt lat="43.99863" lon="4.80091">
        <ele>123.666748</ele>
        <time>2006-10-21T09:54:20Z</time>
      </trkpt>
      <trkpt lat="43.99866" lon="4.80169">
        <ele>127.031372</ele>
        <time>2006-10-21T09:54:45Z</time>
      </trkpt>
      <trkpt lat="43.99864" lon="4.80207">
        <ele>131.3573</ele>
        <time>2006-10-21T09:54:59Z</time>
      </trkpt>
      <trkpt lat="43.99865" lon="4.80247">
        <ele>135.202515</ele>
        <time>2006-10-21T09:55:17Z</time>
      </trkpt>
      <trkpt lat="43.99859" lon="4.80292">
        <ele>136.16394</ele>
        <time>2006-10-21T09:55:36Z</time>
      </trkpt>
      <trkpt lat="43.999" lon="4.80308">
        <ele>135.683105</ele>
        <time>2006-10-21T09:55:49Z</time>
      </trkpt>
      <trkpt lat="43.99939" lon="4.8032">
        <ele>134.721924</ele>
        <time>2006-10-21T09:55:59Z</time>
      </trkpt>
      <trkpt lat="43.99993" lon="4.80313">
        <ele>134.241211</ele>
        <time>2006-10-21T09:56:11Z</time>
      </trkpt>
      <trkpt lat="44.00043" lon="4.80341">
        <ele>129.915283</ele>
        <time>2006-10-21T09:56:22Z</time>
      </trkpt>
      <trkpt lat="44.0006" lon="4.80361">
        <ele>128.954102</ele>
        <time>2006-10-21T09:56:25Z</time>
      </trkpt>
      <trkpt lat="44.00078" lon="4.804">
        <ele>127.511963</ele>
        <time>2006-10-21T09:56:30Z</time>
      </trkpt>
      <trkpt lat="44.00085" lon="4.80453">
        <ele>129.915283</ele>
        <time>2006-10-21T09:56:37Z</time>
      </trkpt>
      <trkpt lat="44.00095" lon="4.80495">
        <ele>129.915283</ele>
        <time>2006-10-21T09:56:45Z</time>
      </trkpt>
      <trkpt lat="44.00121" lon="4.80526">
        <ele>129.434692</ele>
        <time>2006-10-21T09:56:54Z</time>
      </trkpt>
      <trkpt lat="44.00147" lon="4.80548">
        <ele>127.992554</ele>
        <time>2006-10-21T09:57:02Z</time>
      </trkpt>
      <trkpt lat="44.0017" lon="4.80568">
        <ele>125.589355</ele>
        <time>2006-10-21T09:57:08Z</time>
      </trkpt>
      <trkpt lat="44.00203" lon="4.8059">
        <ele>120.782837</ele>
        <time>2006-10-21T09:57:14Z</time>
      </trkpt>
      <trkpt lat="44.00244" lon="4.80605">
        <ele>117.418213</ele>
        <time>2006-10-21T09:57:20Z</time>
      </trkpt>
      <trkpt lat="44.00277" lon="4.80599">
        <ele>116.456787</ele>
        <time>2006-10-21T09:57:26Z</time>
      </trkpt>
      <trkpt lat="44.00287" lon="4.80595">
        <ele>116.456787</ele>
        <time>2006-10-21T09:57:28Z</time>
      </trkpt>
      <trkpt lat="44.00328" lon="4.80578">
        <ele>115.014893</ele>
        <time>2006-10-21T09:57:38Z</time>
      </trkpt>
      <trkpt lat="44.00343" lon="4.80581">
        <ele>118.860107</ele>
        <time>2006-10-21T09:57:45Z</time>
      </trkpt>
      <trkpt lat="44.00363" lon="4.80573">
        <ele>118.860107</ele>
        <time>2006-10-21T09:57:54Z</time>
      </trkpt>
      <trkpt lat="44.0037" lon="4.80572">
        <ele>118.379395</ele>
        <time>2006-10-21T09:57:56Z</time>
      </trkpt>
      <trkpt lat="44.00387" lon="4.80557">
        <ele>114.53418</ele>
        <time>2006-10-21T09:58:01Z</time>
      </trkpt>
      <trkpt lat="44.0039" lon="4.80553">
        <ele>113.572998</ele>
        <time>2006-10-21T09:58:02Z</time>
      </trkpt>
      <trkpt lat="44.00434" lon="4.80523">
        <ele>109.727661</ele>
        <time>2006-10-21T09:58:10Z</time>
      </trkpt>
      <trkpt lat="44.00439" lon="4.80515">
        <ele>107.805054</ele>
        <time>2006-10-21T09:58:12Z</time>
      </trkpt>
      <trkpt lat="44.00449" lon="4.80497">
        <ele>104.44043</ele>
        <time>2006-10-21T09:58:16Z</time>
      </trkpt>
      <trkpt lat="44.00456" lon="4.80482">
        <ele>102.998291</ele>
        <time>2006-10-21T09:58:18Z</time>
      </trkpt>
      <trkpt lat="44.00467" lon="4.80471">
        <ele>102.998291</ele>
        <time>2006-10-21T09:58:22Z</time>
      </trkpt>
      <trkpt lat="44.00486" lon="4.80487">
        <ele>94.827148</ele>
        <time>2006-10-21T09:58:32Z</time>
      </trkpt>
      <trkpt lat="44.0049" lon="4.80489">
        <ele>94.827148</ele>
        <time>2006-10-21T09:58:33Z</time>
      </trkpt>
      <trkpt lat="44.00517" lon="4.80467">
        <ele>89.059326</ele>
        <time>2006-10-21T09:58:41Z</time>
      </trkpt>
      <trkpt lat="44.00532" lon="4.80457">
        <ele>85.69458</ele>
        <time>2006-10-21T09:58:44Z</time>
      </trkpt>
      <trkpt lat="44.00535" lon="4.80438">
        <ele>83.291382</ele>
        <time>2006-10-21T09:58:47Z</time>
      </trkpt>
      <trkpt lat="44.00555" lon="4.80439">
        <ele>81.849365</ele>
        <time>2006-10-21T09:58:53Z</time>
      </trkpt>
      <trkpt lat="44.00578" lon="4.80403">
        <ele>76.562134</ele>
        <time>2006-10-21T09:59:00Z</time>
      </trkpt>
      <trkpt lat="44.00599" lon="4.80383">
        <ele>71.755493</ele>
        <time>2006-10-21T09:59:05Z</time>
      </trkpt>
      <trkpt lat="44.00608" lon="4.80371">
        <ele>68.390869</ele>
        <time>2006-10-21T09:59:07Z</time>
      </trkpt>
      <trkpt lat="44.00625" lon="4.80351">
        <ele>65.026367</ele>
        <time>2006-10-21T09:59:12Z</time>
      </trkpt>
      <trkpt lat="44.00662" lon="4.80337">
        <ele>61.18103</ele>
        <time>2006-10-21T09:59:19Z</time>
      </trkpt>
      <trkpt lat="44.00732" lon="4.80296">
        <ele>57.335815</ele>
        <time>2006-10-21T09:59:30Z</time>
      </trkpt>
      <trkpt lat="44.00739" lon="4.80291">
        <ele>57.816528</ele>
        <time>2006-10-21T09:59:31Z</time>
      </trkpt>
      <trkpt lat="44.00781" lon="4.80266">
        <ele>54.451782</ele>
        <time>2006-10-21T09:59:37Z</time>
      </trkpt>
      <trkpt lat="44.00797" lon="4.80235">
        <ele>51.567871</ele>
        <time>2006-10-21T09:59:41Z</time>
      </trkpt>
      <trkpt lat="44.00863" lon="4.80142">
        <ele>46.76123</ele>
        <time>2006-10-21T09:59:52Z</time>
      </trkpt>
      <trkpt lat="44.00874" lon="4.8013">
        <ele>44.358032</ele>
        <time>2006-10-21T09:59:55Z</time>
      </trkpt>
      <trkpt lat="44.0088" lon="4.80124">
        <ele>42.916016</ele>
        <time>2006-10-21T09:59:57Z</time>
      </trkpt>
      <trkpt lat="44.00908" lon="4.80123">
        <ele>41.954712</ele>
        <time>2006-10-21T10:00:04Z</time>
      </trkpt>
      <trkpt lat="44.00917" lon="4.80121">
        <ele>41.473999</ele>
        <time>2006-10-21T10:00:06Z</time>
      </trkpt>
      <trkpt lat="44.00968" lon="4.80091">
        <ele>40.032104</ele>
        <time>2006-10-21T10:00:17Z</time>
      </trkpt>
      <trkpt lat="44.00975" lon="4.80084">
        <ele>40.032104</ele>
        <time>2006-10-21T10:00:20Z</time>
      </trkpt>
      <trkpt lat="44.00966" lon="4.80069">
        <ele>40.512817</ele>
        <time>2006-10-21T10:00:25Z</time>
      </trkpt>
      <trkpt lat="44.00921" lon="4.80056">
        <ele>41.954712</ele>
        <time>2006-10-21T10:00:36Z</time>
      </trkpt>
      <trkpt lat="44.00882" lon="4.80037">
        <ele>42.916016</ele>
        <time>2006-10-21T10:00:50Z</time>
      </trkpt>
      <trkpt lat="44.00837" lon="4.80002">
        <ele>46.28064</ele>
        <time>2006-10-21T10:01:07Z</time>
      </trkpt>
      <trkpt lat="44.00798" lon="4.79957">
        <ele>47.241821</ele>
        <time>2006-10-21T10:01:27Z</time>
      </trkpt>
      <trkpt lat="44.00785" lon="4.79946">
        <ele>47.241821</ele>
        <time>2006-10-21T10:01:33Z</time>
      </trkpt>
      <trkpt lat="44.00747" lon="4.79905">
        <ele>47.722534</ele>
        <time>2006-10-21T10:01:52Z</time>
      </trkpt>
      <trkpt lat="44.0074" lon="4.79771">
        <ele>51.567871</ele>
        <time>2006-10-21T10:02:27Z</time>
      </trkpt>
      <trkpt lat="44.00755" lon="4.79741">
        <ele>53.490479</ele>
        <time>2006-10-21T10:02:38Z</time>
      </trkpt>
      <trkpt lat="44.00785" lon="4.79701">
        <ele>57.335815</ele>
        <time>2006-10-21T10:02:55Z</time>
      </trkpt>
      <trkpt lat="44.00826" lon="4.79698">
        <ele>57.816528</ele>
        <time>2006-10-21T10:03:08Z</time>
      </trkpt>
      <trkpt lat="44.00907" lon="4.79678">
        <ele>60.219727</ele>
        <time>2006-10-21T10:03:35Z</time>
      </trkpt>
      <trkpt lat="44.00993" lon="4.79634">
        <ele>62.142334</ele>
        <time>2006-10-21T10:04:06Z</time>
      </trkpt>
      <trkpt lat="44.01057" lon="4.79594">
        <ele>65.987671</ele>
        <time>2006-10-21T10:04:32Z</time>
      </trkpt>
      <trkpt lat="44.01067" lon="4.79536">
        <ele>69.832886</ele>
        <time>2006-10-21T10:04:50Z</time>
      </trkpt>
      <trkpt lat="44.01064" lon="4.79449">
        <ele>74.158813</ele>
        <time>2006-10-21T10:05:17Z</time>
      </trkpt>
      <trkpt lat="44.01064" lon="4.79327">
        <ele>76.562134</ele>
        <time>2006-10-21T10:05:50Z</time>
      </trkpt>
      <trkpt lat="44.01073" lon="4.79205">
        <ele>77.523438</ele>
        <time>2006-10-21T10:06:17Z</time>
      </trkpt>
      <trkpt lat="44.01072" lon="4.79178">
        <ele>78.484741</ele>
        <time>2006-10-21T10:06:24Z</time>
      </trkpt>
      <trkpt lat="44.01089" lon="4.79169">
        <ele>78.484741</ele>
        <time>2006-10-21T10:06:31Z</time>
      </trkpt>
      <trkpt lat="44.01146" lon="4.79138">
        <ele>83.291382</ele>
        <time>2006-10-21T10:06:55Z</time>
      </trkpt>
      <trkpt lat="44.01153" lon="4.79155">
        <ele>81.849365</ele>
        <time>2006-10-21T10:07:01Z</time>
      </trkpt>
      <trkpt lat="44.01165" lon="4.79227">
        <ele>81.849365</ele>
        <time>2006-10-21T10:07:16Z</time>
      </trkpt>
      <trkpt lat="44.01168" lon="4.79282">
        <ele>83.291382</ele>
        <time>2006-10-21T10:07:28Z</time>
      </trkpt>
      <trkpt lat="44.01179" lon="4.79353">
        <ele>83.771973</ele>
        <time>2006-10-21T10:07:45Z</time>
      </trkpt>
      <trkpt lat="44.01187" lon="4.79355">
        <ele>83.771973</ele>
        <time>2006-10-21T10:07:56Z</time>
      </trkpt>
      <trkpt lat="44.0119" lon="4.79354">
        <ele>83.771973</ele>
        <time>2006-10-21T10:07:58Z</time>
      </trkpt>
      <trkpt lat="44.01219" lon="4.79339">
        <ele>86.175293</ele>
        <time>2006-10-21T10:08:12Z</time>
      </trkpt>
      <trkpt lat="44.01237" lon="4.79327">
        <ele>87.136597</ele>
        <time>2006-10-21T10:08:26Z</time>
      </trkpt>
      <trkpt lat="44.01231" lon="4.79331">
        <ele>87.136597</ele>
        <time>2006-10-21T10:08:47Z</time>
      </trkpt>
      <trkpt lat="44.01237" lon="4.79325">
        <ele>86.656006</ele>
        <time>2006-10-21T10:08:58Z</time>
      </trkpt>
      <trkpt lat="44.01236" lon="4.79333">
        <ele>87.617188</ele>
        <time>2006-10-21T10:09:07Z</time>
      </trkpt>
      <trkpt lat="44.01228" lon="4.79332">
        <ele>86.656006</ele>
        <time>2006-10-21T10:09:16Z</time>
      </trkpt>
      <trkpt lat="44.01239" lon="4.79325">
        <ele>86.656006</ele>
        <time>2006-10-21T10:09:22Z</time>
      </trkpt>
      <trkpt lat="44.01249" lon="4.79327">
        <ele>88.098022</ele>
        <time>2006-10-21T10:09:26Z</time>
      </trkpt>
      <trkpt lat="44.01268" lon="4.79334">
        <ele>90.02063</ele>
        <time>2006-10-21T10:09:36Z</time>
      </trkpt>
      <trkpt lat="44.0133" lon="4.79298">
        <ele>92.904541</ele>
        <time>2006-10-21T10:09:55Z</time>
      </trkpt>
      <trkpt lat="44.01343" lon="4.79278">
        <ele>94.346558</ele>
        <time>2006-10-21T10:10:03Z</time>
      </trkpt>
      <trkpt lat="44.01335" lon="4.79236">
        <ele>97.230469</ele>
        <time>2006-10-21T10:10:14Z</time>
      </trkpt>
      <trkpt lat="44.01345" lon="4.79234">
        <ele>98.191895</ele>
        <time>2006-10-21T10:10:20Z</time>
      </trkpt>
      <trkpt lat="44.0137" lon="4.79243">
        <ele>100.595093</ele>
        <time>2006-10-21T10:10:32Z</time>
      </trkpt>
      <trkpt lat="44.01414" lon="4.79259">
        <ele>102.5177</ele>
        <time>2006-10-21T10:10:53Z</time>
      </trkpt>
      <trkpt lat="44.01433" lon="4.7926">
        <ele>105.882446</ele>
        <time>2006-10-21T10:11:05Z</time>
      </trkpt>
      <trkpt lat="44.01435" lon="4.7926">
        <ele>105.882446</ele>
        <time>2006-10-21T10:11:06Z</time>
      </trkpt>
      <trkpt lat="44.0147" lon="4.7924">
        <ele>109.727661</ele>
        <time>2006-10-21T10:11:28Z</time>
      </trkpt>
      <trkpt lat="44.01472" lon="4.79239">
        <ele>109.727661</ele>
        <time>2006-10-21T10:11:29Z</time>
      </trkpt>
      <trkpt lat="44.01481" lon="4.79262">
        <ele>109.727661</ele>
        <time>2006-10-21T10:11:40Z</time>
      </trkpt>
      <trkpt lat="44.01463" lon="4.79285">
        <ele>108.285645</ele>
        <time>2006-10-21T10:11:50Z</time>
      </trkpt>
      <trkpt lat="44.01418" lon="4.79332">
        <ele>107.324341</ele>
        <time>2006-10-21T10:12:04Z</time>
      </trkpt>
      <trkpt lat="44.01388" lon="4.79393">
        <ele>107.805054</ele>
        <time>2006-10-21T10:12:16Z</time>
      </trkpt>
      <trkpt lat="44.01404" lon="4.79403">
        <ele>108.766235</ele>
        <time>2006-10-21T10:12:24Z</time>
      </trkpt>
      <trkpt lat="44.0143" lon="4.79402">
        <ele>110.688843</ele>
        <time>2006-10-21T10:12:36Z</time>
      </trkpt>
      <trkpt lat="44.01489" lon="4.79392">
        <ele>111.650269</ele>
        <time>2006-10-21T10:12:57Z</time>
      </trkpt>
      <trkpt lat="44.01536" lon="4.79373">
        <ele>112.130981</ele>
        <time>2006-10-21T10:13:13Z</time>
      </trkpt>
      <trkpt lat="44.01551" lon="4.79338">
        <ele>111.650269</ele>
        <time>2006-10-21T10:13:22Z</time>
      </trkpt>
      <trkpt lat="44.01561" lon="4.79286">
        <ele>111.650269</ele>
        <time>2006-10-21T10:13:36Z</time>
      </trkpt>
      <trkpt lat="44.0155" lon="4.79242">
        <ele>111.650269</ele>
        <time>2006-10-21T10:13:45Z</time>
      </trkpt>
      <trkpt lat="44.01528" lon="4.79172">
        <ele>110.688843</ele>
        <time>2006-10-21T10:14:01Z</time>
      </trkpt>
      <trkpt lat="44.01516" lon="4.79138">
        <ele>110.208252</ele>
        <time>2006-10-21T10:14:10Z</time>
      </trkpt>
      <trkpt lat="44.01505" lon="4.79144">
        <ele>111.169556</ele>
        <time>2006-10-21T10:14:15Z</time>
      </trkpt>
      <trkpt lat="44.01501" lon="4.79164">
        <ele>111.650269</ele>
        <time>2006-10-21T10:14:20Z</time>
      </trkpt>
      <trkpt lat="44.01488" lon="4.79166">
        <ele>111.169556</ele>
        <time>2006-10-21T10:14:26Z</time>
      </trkpt>
      <trkpt lat="44.01471" lon="4.79108">
        <ele>111.169556</ele>
        <time>2006-10-21T10:14:40Z</time>
      </trkpt>
      <trkpt lat="44.01438" lon="4.79029">
        <ele>110.208252</ele>
        <time>2006-10-21T10:15:02Z</time>
      </trkpt>
      <trkpt lat="44.01426" lon="4.7898">
        <ele>109.246948</ele>
        <time>2006-10-21T10:15:13Z</time>
      </trkpt>
      <trkpt lat="44.01405" lon="4.78918">
        <ele>109.727661</ele>
        <time>2006-10-21T10:15:28Z</time>
      </trkpt>
      <trkpt lat="44.0139" lon="4.7892">
        <ele>108.766235</ele>
        <time>2006-10-21T10:15:34Z</time>
      </trkpt>
      <trkpt lat="44.01309" lon="4.78871">
        <ele>106.363037</ele>
        <time>2006-10-21T10:15:53Z</time>
      </trkpt>
      <trkpt lat="44.01287" lon="4.78823">
        <ele>106.843628</ele>
        <time>2006-10-21T10:16:04Z</time>
      </trkpt>
      <trkpt lat="44.013" lon="4.78724">
        <ele>104.921021</ele>
        <time>2006-10-21T10:16:19Z</time>
      </trkpt>
      <trkpt lat="44.01304" lon="4.78678">
        <ele>104.44043</ele>
        <time>2006-10-21T10:16:26Z</time>
      </trkpt>
      <trkpt lat="44.01307" lon="4.78635">
        <ele>103.959717</ele>
        <time>2006-10-21T10:16:36Z</time>
      </trkpt>
      <trkpt lat="44.01325" lon="4.78556">
        <ele>102.998291</ele>
        <time>2006-10-21T10:16:55Z</time>
      </trkpt>
      <trkpt lat="44.01326" lon="4.78501">
        <ele>100.114502</ele>
        <time>2006-10-21T10:17:04Z</time>
      </trkpt>
      <trkpt lat="44.01328" lon="4.78456">
        <ele>96.269287</ele>
        <time>2006-10-21T10:17:10Z</time>
      </trkpt>
      <trkpt lat="44.01331" lon="4.78372">
        <ele>91.462524</ele>
        <time>2006-10-21T10:17:19Z</time>
      </trkpt>
      <trkpt lat="44.01337" lon="4.78324">
        <ele>91.943237</ele>
        <time>2006-10-21T10:17:24Z</time>
      </trkpt>
      <trkpt lat="44.01329" lon="4.7829">
        <ele>91.943237</ele>
        <time>2006-10-21T10:17:29Z</time>
      </trkpt>
      <trkpt lat="44.01333" lon="4.78277">
        <ele>91.943237</ele>
        <time>2006-10-21T10:17:33Z</time>
      </trkpt>
      <trkpt lat="44.01387" lon="4.78279">
        <ele>95.788452</ele>
        <time>2006-10-21T10:17:46Z</time>
      </trkpt>
      <trkpt lat="44.01468" lon="4.78247">
        <ele>101.075684</ele>
        <time>2006-10-21T10:18:08Z</time>
      </trkpt>
      <trkpt lat="44.01558" lon="4.78211">
        <ele>104.44043</ele>
        <time>2006-10-21T10:18:35Z</time>
      </trkpt>
      <trkpt lat="44.01544" lon="4.78165">
        <ele>105.401733</ele>
        <time>2006-10-21T10:18:49Z</time>
      </trkpt>
      <trkpt lat="44.01507" lon="4.78128">
        <ele>105.882446</ele>
        <time>2006-10-21T10:19:01Z</time>
      </trkpt>
      <trkpt lat="44.0151" lon="4.78069">
        <ele>108.285645</ele>
        <time>2006-10-21T10:19:16Z</time>
      </trkpt>
      <trkpt lat="44.01527" lon="4.78033">
        <ele>110.208252</ele>
        <time>2006-10-21T10:19:26Z</time>
      </trkpt>
      <trkpt lat="44.01537" lon="4.78011">
        <ele>111.650269</ele>
        <time>2006-10-21T10:19:33Z</time>
      </trkpt>
      <trkpt lat="44.01531" lon="4.77973">
        <ele>113.092285</ele>
        <time>2006-10-21T10:19:42Z</time>
      </trkpt>
      <trkpt lat="44.01515" lon="4.77881">
        <ele>116.9375</ele>
        <time>2006-10-21T10:20:05Z</time>
      </trkpt>
      <trkpt lat="44.01497" lon="4.77793">
        <ele>121.744141</ele>
        <time>2006-10-21T10:20:27Z</time>
      </trkpt>
      <trkpt lat="44.01465" lon="4.77756">
        <ele>123.186157</ele>
        <time>2006-10-21T10:20:41Z</time>
      </trkpt>
      <trkpt lat="44.01416" lon="4.77695">
        <ele>124.147339</ele>
        <time>2006-10-21T10:21:02Z</time>
      </trkpt>
      <trkpt lat="44.01397" lon="4.77588">
        <ele>123.186157</ele>
        <time>2006-10-21T10:21:24Z</time>
      </trkpt>
      <trkpt lat="44.01394" lon="4.77581">
        <ele>123.186157</ele>
        <time>2006-10-21T10:21:26Z</time>
      </trkpt>
      <trkpt lat="44.01361" lon="4.77583">
        <ele>122.705444</ele>
        <time>2006-10-21T10:21:35Z</time>
      </trkpt>
      <trkpt lat="44.01336" lon="4.77572">
        <ele>122.705444</ele>
        <time>2006-10-21T10:21:41Z</time>
      </trkpt>
      <trkpt lat="44.01321" lon="4.77481">
        <ele>124.628052</ele>
        <time>2006-10-21T10:21:59Z</time>
      </trkpt>
      <trkpt lat="44.01308" lon="4.77419">
        <ele>124.628052</ele>
        <time>2006-10-21T10:22:10Z</time>
      </trkpt>
      <trkpt lat="44.01297" lon="4.77357">
        <ele>125.589355</ele>
        <time>2006-10-21T10:22:21Z</time>
      </trkpt>
      <trkpt lat="44.0128" lon="4.77293">
        <ele>126.069946</ele>
        <time>2006-10-21T10:22:33Z</time>
      </trkpt>
      <trkpt lat="44.0127" lon="4.77253">
        <ele>126.069946</ele>
        <time>2006-10-21T10:22:43Z</time>
      </trkpt>
      <trkpt lat="44.01254" lon="4.77237">
        <ele>126.069946</ele>
        <time>2006-10-21T10:22:55Z</time>
      </trkpt>
      <trkpt lat="44.01248" lon="4.77246">
        <ele>126.069946</ele>
        <time>2006-10-21T10:23:10Z</time>
      </trkpt>
      <trkpt lat="44.01249" lon="4.77232">
        <ele>125.589355</ele>
        <time>2006-10-21T10:34:10Z</time>
      </trkpt>
      <trkpt lat="44.01258" lon="4.77243">
        <ele>124.628052</ele>
        <time>2006-10-21T10:37:20Z</time>
      </trkpt>
      <trkpt lat="44.01256" lon="4.77242">
        <ele>124.628052</ele>
        <time>2006-10-21T10:37:29Z</time>
      </trkpt>
      <trkpt lat="44.01229" lon="4.77256">
        <ele>124.628052</ele>
        <time>2006-10-21T10:37:41Z</time>
      </trkpt>
      <trkpt lat="44.01208" lon="4.77263">
        <ele>125.108765</ele>
        <time>2006-10-21T10:37:50Z</time>
      </trkpt>
      <trkpt lat="44.01121" lon="4.77288">
        <ele>126.069946</ele>
        <time>2006-10-21T10:38:16Z</time>
      </trkpt>
      <trkpt lat="44.01063" lon="4.77293">
        <ele>126.550659</ele>
        <time>2006-10-21T10:38:30Z</time>
      </trkpt>
      <trkpt lat="44.00962" lon="4.7731">
        <ele>125.108765</ele>
        <time>2006-10-21T10:38:53Z</time>
      </trkpt>
      <trkpt lat="44.00901" lon="4.77324">
        <ele>125.108765</ele>
        <time>2006-10-21T10:39:07Z</time>
      </trkpt>
      <trkpt lat="44.009" lon="4.7734">
        <ele>125.108765</ele>
        <time>2006-10-21T10:39:12Z</time>
      </trkpt>
      <trkpt lat="44.00905" lon="4.77361">
        <ele>124.628052</ele>
        <time>2006-10-21T10:39:16Z</time>
      </trkpt>
      <trkpt lat="44.00893" lon="4.77405">
        <ele>124.147339</ele>
        <time>2006-10-21T10:39:25Z</time>
      </trkpt>
      <trkpt lat="44.00866" lon="4.77429">
        <ele>123.186157</ele>
        <time>2006-10-21T10:39:34Z</time>
      </trkpt>
      <trkpt lat="44.00843" lon="4.77459">
        <ele>121.26355</ele>
        <time>2006-10-21T10:39:45Z</time>
      </trkpt>
      <trkpt lat="44.00837" lon="4.77488">
        <ele>118.379395</ele>
        <time>2006-10-21T10:39:49Z</time>
      </trkpt>
      <trkpt lat="44.00817" lon="4.7755">
        <ele>115.495605</ele>
        <time>2006-10-21T10:39:57Z</time>
      </trkpt>
      <trkpt lat="44.00808" lon="4.77561">
        <ele>111.650269</ele>
        <time>2006-10-21T10:40:05Z</time>
      </trkpt>
      <trkpt lat="44.00804" lon="4.77563">
        <ele>107.805054</ele>
        <time>2006-10-21T10:40:07Z</time>
      </trkpt>
      <trkpt lat="44.00795" lon="4.77566">
        <ele>105.882446</ele>
        <time>2006-10-21T10:40:15Z</time>
      </trkpt>
      <trkpt lat="44.00785" lon="4.77563">
        <ele>101.075684</ele>
        <time>2006-10-21T10:40:22Z</time>
      </trkpt>
      <trkpt lat="44.00783" lon="4.77565">
        <ele>101.075684</ele>
        <time>2006-10-21T10:40:23Z</time>
      </trkpt>
      <trkpt lat="44.00758" lon="4.77559">
        <ele>100.595093</ele>
        <time>2006-10-21T10:40:31Z</time>
      </trkpt>
      <trkpt lat="44.00723" lon="4.77559">
        <ele>100.595093</ele>
        <time>2006-10-21T10:40:40Z</time>
      </trkpt>
      <trkpt lat="44.00659" lon="4.77556">
        <ele>102.5177</ele>
        <time>2006-10-21T10:41:03Z</time>
      </trkpt>
      <trkpt lat="44.00605" lon="4.77548">
        <ele>105.882446</ele>
        <time>2006-10-21T10:41:23Z</time>
      </trkpt>
      <trkpt lat="44.00589" lon="4.7753">
        <ele>107.805054</ele>
        <time>2006-10-21T10:41:33Z</time>
      </trkpt>
      <trkpt lat="44.00597" lon="4.77525">
        <ele>110.688843</ele>
        <time>2006-10-21T10:42:07Z</time>
      </trkpt>
      <trkpt lat="44.00601" lon="4.77529">
        <ele>110.688843</ele>
        <time>2006-10-21T10:42:14Z</time>
      </trkpt>
      <trkpt lat="44.00607" lon="4.7753">
        <ele>112.130981</ele>
        <time>2006-10-21T10:42:21Z</time>
      </trkpt>
      <trkpt lat="44.006" lon="4.77514">
        <ele>115.495605</ele>
        <time>2006-10-21T10:42:29Z</time>
      </trkpt>
      <trkpt lat="44.00599" lon="4.77512">
        <ele>115.495605</ele>
        <time>2006-10-21T10:42:30Z</time>
      </trkpt>
      <trkpt lat="44.00603" lon="4.77494">
        <ele>118.379395</ele>
        <time>2006-10-21T10:42:45Z</time>
      </trkpt>
      <trkpt lat="44.0062" lon="4.77521">
        <ele>122.705444</ele>
        <time>2006-10-21T10:42:59Z</time>
      </trkpt>
      <trkpt lat="44.00637" lon="4.77492">
        <ele>126.069946</ele>
        <time>2006-10-21T10:43:16Z</time>
      </trkpt>
      <trkpt lat="44.00634" lon="4.77459">
        <ele>123.666748</ele>
        <time>2006-10-21T10:43:27Z</time>
      </trkpt>
      <trkpt lat="44.00625" lon="4.77447">
        <ele>120.782837</ele>
        <time>2006-10-21T10:43:32Z</time>
      </trkpt>
      <trkpt lat="44.00614" lon="4.77442">
        <ele>116.9375</ele>
        <time>2006-10-21T10:43:37Z</time>
      </trkpt>
      <trkpt lat="44.00601" lon="4.77422">
        <ele>111.650269</ele>
        <time>2006-10-21T10:43:43Z</time>
      </trkpt>
      <trkpt lat="44.00589" lon="4.77428">
        <ele>106.363037</ele>
        <time>2006-10-21T10:43:51Z</time>
      </trkpt>
      <trkpt lat="44.00581" lon="4.7743">
        <ele>103.959717</ele>
        <time>2006-10-21T10:43:55Z</time>
      </trkpt>
      <trkpt lat="44.00574" lon="4.77433">
        <ele>101.556396</ele>
        <time>2006-10-21T10:43:58Z</time>
      </trkpt>
      <trkpt lat="44.00562" lon="4.77395">
        <ele>97.230469</ele>
        <time>2006-10-21T10:44:18Z</time>
      </trkpt>
      <trkpt lat="44.00563" lon="4.77356">
        <ele>94.827148</ele>
        <time>2006-10-21T10:44:24Z</time>
      </trkpt>
      <trkpt lat="44.00565" lon="4.77332">
        <ele>92.42395</ele>
        <time>2006-10-21T10:44:27Z</time>
      </trkpt>
      <trkpt lat="44.00583" lon="4.7718">
        <ele>86.175293</ele>
        <time>2006-10-21T10:44:53Z</time>
      </trkpt>
      <trkpt lat="44.00584" lon="4.77186">
        <ele>85.69458</ele>
        <time>2006-10-21T10:45:00Z</time>
      </trkpt>
      <trkpt lat="44.00591" lon="4.77203">
        <ele>87.617188</ele>
        <time>2006-10-21T10:47:39Z</time>
      </trkpt>
      <trkpt lat="44.00592" lon="4.77204">
        <ele>87.617188</ele>
        <time>2006-10-21T10:47:40Z</time>
      </trkpt>
      <trkpt lat="44.00603" lon="4.77211">
        <ele>90.501343</ele>
        <time>2006-10-21T10:47:47Z</time>
      </trkpt>
      <trkpt lat="44.00623" lon="4.77223">
        <ele>94.827148</ele>
        <time>2006-10-21T10:47:57Z</time>
      </trkpt>
      <trkpt lat="44.00649" lon="4.77233">
        <ele>98.672485</ele>
        <time>2006-10-21T10:48:13Z</time>
      </trkpt>
      <trkpt lat="44.00657" lon="4.77244">
        <ele>100.114502</ele>
        <time>2006-10-21T10:48:31Z</time>
      </trkpt>
      <trkpt lat="44.00659" lon="4.77255">
        <ele>102.998291</ele>
        <time>2006-10-21T10:48:49Z</time>
      </trkpt>
      <trkpt lat="44.00661" lon="4.77266">
        <ele>104.921021</ele>
        <time>2006-10-21T10:49:03Z</time>
      </trkpt>
      <trkpt lat="44.00663" lon="4.77286">
        <ele>108.285645</ele>
        <time>2006-10-21T10:49:27Z</time>
      </trkpt>
      <trkpt lat="44.0066" lon="4.77305">
        <ele>112.611572</ele>
        <time>2006-10-21T10:49:44Z</time>
      </trkpt>
      <trkpt lat="44.0066" lon="4.77305">
        <ele>112.611572</ele>
        <time>2006-10-21T10:49:52Z</time>
      </trkpt>
      <trkpt lat="44.0066" lon="4.77305">
        <ele>111.650269</ele>
        <time>2006-10-21T10:50:49Z</time>
      </trkpt>
      <trkpt lat="44.00671" lon="4.77314">
        <ele>112.611572</ele>
        <time>2006-10-21T10:51:00Z</time>
      </trkpt>
      <trkpt lat="44.00679" lon="4.77322">
        <ele>114.053589</ele>
        <time>2006-10-21T10:51:20Z</time>
      </trkpt>
      <trkpt lat="44.00686" lon="4.77329">
        <ele>115.976196</ele>
        <time>2006-10-21T10:51:43Z</time>
      </trkpt>
      <trkpt lat="44.0069" lon="4.77336">
        <ele>121.744141</ele>
        <time>2006-10-21T10:51:58Z</time>
      </trkpt>
      <trkpt lat="44.00713" lon="4.77345">
        <ele>125.108765</ele>
        <time>2006-10-21T10:52:30Z</time>
      </trkpt>
      <trkpt lat="44.00747" lon="4.77356">
        <ele>125.108765</ele>
        <time>2006-10-21T10:52:46Z</time>
      </trkpt>
      <trkpt lat="44.0079" lon="4.77348">
        <ele>125.108765</ele>
        <time>2006-10-21T10:53:03Z</time>
      </trkpt>
      <trkpt lat="44.00829" lon="4.77341">
        <ele>124.628052</ele>
        <time>2006-10-21T10:53:18Z</time>
      </trkpt>
      <trkpt lat="44.00919" lon="4.77318">
        <ele>124.628052</ele>
        <time>2006-10-21T10:53:48Z</time>
      </trkpt>
      <trkpt lat="44.01004" lon="4.77298">
        <ele>124.628052</ele>
        <time>2006-10-21T10:54:13Z</time>
      </trkpt>
      <trkpt lat="44.01097" lon="4.77282">
        <ele>123.666748</ele>
        <time>2006-10-21T10:54:41Z</time>
      </trkpt>
      <trkpt lat="44.01186" lon="4.77268">
        <ele>123.666748</ele>
        <time>2006-10-21T10:55:04Z</time>
      </trkpt>
      <trkpt lat="44.01225" lon="4.7726">
        <ele>122.224731</ele>
        <time>2006-10-21T10:55:14Z</time>
      </trkpt>
      <trkpt lat="44.01239" lon="4.77248">
        <ele>122.224731</ele>
        <time>2006-10-21T10:55:20Z</time>
      </trkpt>
      <trkpt lat="44.01261" lon="4.77233">
        <ele>122.705444</ele>
        <time>2006-10-21T10:55:36Z</time>
      </trkpt>
      <trkpt lat="44.01263" lon="4.77225">
        <ele>123.186157</ele>
        <time>2006-10-21T10:56:18Z</time>
      </trkpt>
      <trkpt lat="44.01275" lon="4.77247">
        <ele>122.224731</ele>
        <time>2006-10-21T10:56:26Z</time>
      </trkpt>
      <trkpt lat="44.01304" lon="4.77241">
        <ele>122.705444</ele>
        <time>2006-10-21T10:56:34Z</time>
      </trkpt>
      <trkpt lat="44.01358" lon="4.77223">
        <ele>122.224731</ele>
        <time>2006-10-21T10:56:52Z</time>
      </trkpt>
      <trkpt lat="44.01432" lon="4.77199">
        <ele>121.26355</ele>
        <time>2006-10-21T10:57:12Z</time>
      </trkpt>
      <trkpt lat="44.01506" lon="4.7718">
        <ele>121.744141</ele>
        <time>2006-10-21T10:57:33Z</time>
      </trkpt>
      <trkpt lat="44.01643" lon="4.77169">
        <ele>120.302124</ele>
        <time>2006-10-21T10:58:13Z</time>
      </trkpt>
      <trkpt lat="44.01705" lon="4.77186">
        <ele>118.860107</ele>
        <time>2006-10-21T10:58:29Z</time>
      </trkpt>
      <trkpt lat="44.01752" lon="4.7719">
        <ele>118.860107</ele>
        <time>2006-10-21T10:58:41Z</time>
      </trkpt>
      <trkpt lat="44.01764" lon="4.77205">
        <ele>119.34082</ele>
        <time>2006-10-21T10:58:45Z</time>
      </trkpt>
      <trkpt lat="44.01769" lon="4.77213">
        <ele>118.860107</ele>
        <time>2006-10-21T10:58:47Z</time>
      </trkpt>
      <trkpt lat="44.01785" lon="4.77209">
        <ele>118.379395</ele>
        <time>2006-10-21T10:58:51Z</time>
      </trkpt>
      <trkpt lat="44.01865" lon="4.77164">
        <ele>118.860107</ele>
        <time>2006-10-21T10:59:12Z</time>
      </trkpt>
      <trkpt lat="44.01902" lon="4.77153">
        <ele>120.302124</ele>
        <time>2006-10-21T10:59:22Z</time>
      </trkpt>
      <trkpt lat="44.01916" lon="4.77149">
        <ele>120.302124</ele>
        <time>2006-10-21T10:59:27Z</time>
      </trkpt>
      <trkpt lat="44.01984" lon="4.77134">
        <ele>119.34082</ele>
        <time>2006-10-21T10:59:46Z</time>
      </trkpt>
      <trkpt lat="44.02069" lon="4.77127">
        <ele>120.302124</ele>
        <time>2006-10-21T11:00:07Z</time>
      </trkpt>
      <trkpt lat="44.02132" lon="4.77119">
        <ele>119.34082</ele>
        <time>2006-10-21T11:00:24Z</time>
      </trkpt>
      <trkpt lat="44.02184" lon="4.77109">
        <ele>118.860107</ele>
        <time>2006-10-21T11:00:38Z</time>
      </trkpt>
      <trkpt lat="44.02241" lon="4.771">
        <ele>117.898804</ele>
        <time>2006-10-21T11:00:52Z</time>
      </trkpt>
      <trkpt lat="44.0227" lon="4.77109">
        <ele>118.379395</ele>
        <time>2006-10-21T11:01:03Z</time>
      </trkpt>
      <trkpt lat="44.02273" lon="4.77134">
        <ele>117.418213</ele>
        <time>2006-10-21T11:01:28Z</time>
      </trkpt>
      <trkpt lat="44.02273" lon="4.77135">
        <ele>118.860107</ele>
        <time>2006-10-21T11:04:33Z</time>
      </trkpt>
      <trkpt lat="44.02282" lon="4.7719">
        <ele>118.860107</ele>
        <time>2006-10-21T11:05:19Z</time>
      </trkpt>
      <trkpt lat="44.02289" lon="4.77256">
        <ele>117.418213</ele>
        <time>2006-10-21T11:05:35Z</time>
      </trkpt>
      <trkpt lat="44.02299" lon="4.77352">
        <ele>117.898804</ele>
        <time>2006-10-21T11:05:56Z</time>
      </trkpt>
      <trkpt lat="44.02323" lon="4.77505">
        <ele>117.898804</ele>
        <time>2006-10-21T11:06:24Z</time>
      </trkpt>
      <trkpt lat="44.02326" lon="4.77516">
        <ele>117.898804</ele>
        <time>2006-10-21T11:06:26Z</time>
      </trkpt>
      <trkpt lat="44.02337" lon="4.77555">
        <ele>118.379395</ele>
        <time>2006-10-21T11:06:33Z</time>
      </trkpt>
      <trkpt lat="44.02357" lon="4.77692">
        <ele>117.898804</ele>
        <time>2006-10-21T11:06:59Z</time>
      </trkpt>
      <trkpt lat="44.02367" lon="4.77842">
        <ele>118.860107</ele>
        <time>2006-10-21T11:07:26Z</time>
      </trkpt>
      <trkpt lat="44.02372" lon="4.77957">
        <ele>116.456787</ele>
        <time>2006-10-21T11:07:47Z</time>
      </trkpt>
      <trkpt lat="44.0238" lon="4.77955">
        <ele>116.456787</ele>
        <time>2006-10-21T11:07:51Z</time>
      </trkpt>
      <trkpt lat="44.02448" lon="4.77921">
        <ele>117.898804</ele>
        <time>2006-10-21T11:08:13Z</time>
      </trkpt>
      <trkpt lat="44.02457" lon="4.77914">
        <ele>117.898804</ele>
        <time>2006-10-21T11:08:17Z</time>
      </trkpt>
      <trkpt lat="44.02467" lon="4.77931">
        <ele>117.418213</ele>
        <time>2006-10-21T11:08:22Z</time>
      </trkpt>
      <trkpt lat="44.02472" lon="4.77975">
        <ele>117.898804</ele>
        <time>2006-10-21T11:08:31Z</time>
      </trkpt>
      <trkpt lat="44.02487" lon="4.7809">
        <ele>115.976196</ele>
        <time>2006-10-21T11:08:54Z</time>
      </trkpt>
      <trkpt lat="44.0249" lon="4.78147">
        <ele>112.130981</ele>
        <time>2006-10-21T11:09:02Z</time>
      </trkpt>
      <trkpt lat="44.02499" lon="4.78215">
        <ele>109.246948</ele>
        <time>2006-10-21T11:09:09Z</time>
      </trkpt>
      <trkpt lat="44.0251" lon="4.78335">
        <ele>106.363037</ele>
        <time>2006-10-21T11:09:21Z</time>
      </trkpt>
      <trkpt lat="44.02506" lon="4.78408">
        <ele>106.843628</ele>
        <time>2006-10-21T11:09:29Z</time>
      </trkpt>
      <trkpt lat="44.02494" lon="4.78544">
        <ele>104.921021</ele>
        <time>2006-10-21T11:09:46Z</time>
      </trkpt>
      <trkpt lat="44.02491" lon="4.78567">
        <ele>103.959717</ele>
        <time>2006-10-21T11:09:51Z</time>
      </trkpt>
      <trkpt lat="44.02483" lon="4.78569">
        <ele>104.44043</ele>
        <time>2006-10-21T11:09:57Z</time>
      </trkpt>
      <trkpt lat="44.0244" lon="4.78582">
        <ele>101.556396</ele>
        <time>2006-10-21T11:10:14Z</time>
      </trkpt>
      <trkpt lat="44.02404" lon="4.78609">
        <ele>96.749878</ele>
        <time>2006-10-21T11:10:25Z</time>
      </trkpt>
      <trkpt lat="44.02389" lon="4.78624">
        <ele>93.385132</ele>
        <time>2006-10-21T11:10:30Z</time>
      </trkpt>
      <trkpt lat="44.02209" lon="4.78782">
        <ele>79.926636</ele>
        <time>2006-10-21T11:11:03Z</time>
      </trkpt>
      <trkpt lat="44.02213" lon="4.78832">
        <ele>78.004028</ele>
        <time>2006-10-21T11:11:10Z</time>
      </trkpt>
      <trkpt lat="44.02203" lon="4.78823">
        <ele>76.081421</ele>
        <time>2006-10-21T11:11:16Z</time>
      </trkpt>
      <trkpt lat="44.02199" lon="4.7883">
        <ele>75.120239</ele>
        <time>2006-10-21T11:11:19Z</time>
      </trkpt>
      <trkpt lat="44.02191" lon="4.78843">
        <ele>73.197632</ele>
        <time>2006-10-21T11:11:24Z</time>
      </trkpt>
      <trkpt lat="44.02196" lon="4.7882">
        <ele>72.236206</ele>
        <time>2006-10-21T11:11:35Z</time>
      </trkpt>
      <trkpt lat="44.02198" lon="4.78772">
        <ele>71.274902</ele>
        <time>2006-10-21T11:11:43Z</time>
      </trkpt>
      <trkpt lat="44.02184" lon="4.7862">
        <ele>74.158813</ele>
        <time>2006-10-21T11:12:13Z</time>
      </trkpt>
      <trkpt lat="44.02143" lon="4.78503">
        <ele>76.081421</ele>
        <time>2006-10-21T11:12:42Z</time>
      </trkpt>
      <trkpt lat="44.02128" lon="4.78596">
        <ele>75.120239</ele>
        <time>2006-10-21T11:13:05Z</time>
      </trkpt>
      <trkpt lat="44.01975" lon="4.78799">
        <ele>81.368774</ele>
        <time>2006-10-21T11:13:53Z</time>
      </trkpt>
      <trkpt lat="44.02003" lon="4.78739">
        <ele>83.291382</ele>
        <time>2006-10-21T11:14:00Z</time>
      </trkpt>
      <trkpt lat="44.0195" lon="4.78708">
        <ele>88.098022</ele>
        <time>2006-10-21T11:14:21Z</time>
      </trkpt>
      <trkpt lat="44.01864" lon="4.78693">
        <ele>94.346558</ele>
        <time>2006-10-21T11:14:59Z</time>
      </trkpt>
      <trkpt lat="44.01796" lon="4.78651">
        <ele>97.711182</ele>
        <time>2006-10-21T11:15:23Z</time>
      </trkpt>
      <trkpt lat="44.01767" lon="4.78629">
        <ele>101.075684</ele>
        <time>2006-10-21T11:15:35Z</time>
      </trkpt>
      <trkpt lat="44.0172" lon="4.78629">
        <ele>103.479004</ele>
        <time>2006-10-21T11:15:54Z</time>
      </trkpt>
      <trkpt lat="44.01689" lon="4.78599">
        <ele>102.998291</ele>
        <time>2006-10-21T11:16:09Z</time>
      </trkpt>
      <trkpt lat="44.01645" lon="4.78592">
        <ele>102.998291</ele>
        <time>2006-10-21T11:16:25Z</time>
      </trkpt>
      <trkpt lat="44.01621" lon="4.78618">
        <ele>102.998291</ele>
        <time>2006-10-21T11:16:33Z</time>
      </trkpt>
      <trkpt lat="44.01606" lon="4.78642">
        <ele>102.998291</ele>
        <time>2006-10-21T11:16:42Z</time>
      </trkpt>
      <trkpt lat="44.01603" lon="4.78675">
        <ele>100.114502</ele>
        <time>2006-10-21T11:16:53Z</time>
      </trkpt>
      <trkpt lat="44.01578" lon="4.78708">
        <ele>99.633789</ele>
        <time>2006-10-21T11:17:03Z</time>
      </trkpt>
      <trkpt lat="44.01584" lon="4.78737">
        <ele>100.114502</ele>
        <time>2006-10-21T11:17:12Z</time>
      </trkpt>
      <trkpt lat="44.01631" lon="4.78814">
        <ele>97.711182</ele>
        <time>2006-10-21T11:17:46Z</time>
      </trkpt>
      <trkpt lat="44.01634" lon="4.78816">
        <ele>98.191895</ele>
        <time>2006-10-21T11:17:55Z</time>
      </trkpt>
      <trkpt lat="44.01653" lon="4.78831">
        <ele>86.656006</ele>
        <time>2006-10-21T11:18:45Z</time>
      </trkpt>
      <trkpt lat="44.01655" lon="4.78833">
        <ele>87.136597</ele>
        <time>2006-10-21T11:18:46Z</time>
      </trkpt>
      <trkpt lat="44.01661" lon="4.78853">
        <ele>86.175293</ele>
        <time>2006-10-21T11:19:09Z</time>
      </trkpt>
      <trkpt lat="44.01662" lon="4.78862">
        <ele>82.330078</ele>
        <time>2006-10-21T11:19:19Z</time>
      </trkpt>
      <trkpt lat="44.01662" lon="4.78862">
        <ele>82.330078</ele>
        <time>2006-10-21T11:19:20Z</time>
      </trkpt>
      <trkpt lat="44.01664" lon="4.78864">
        <ele>78.965454</ele>
        <time>2006-10-21T11:19:47Z</time>
      </trkpt>
      <trkpt lat="44.01665" lon="4.78866">
        <ele>78.965454</ele>
        <time>2006-10-21T11:19:48Z</time>
      </trkpt>
      <trkpt lat="44.01631" lon="4.78907">
        <ele>82.810791</ele>
        <time>2006-10-21T11:20:16Z</time>
      </trkpt>
      <trkpt lat="44.01604" lon="4.78932">
        <ele>86.175293</ele>
        <time>2006-10-21T11:20:42Z</time>
      </trkpt>
      <trkpt lat="44.01599" lon="4.78944">
        <ele>86.656006</ele>
        <time>2006-10-21T11:21:20Z</time>
      </trkpt>
      <trkpt lat="44.01583" lon="4.78974">
        <ele>87.617188</ele>
        <time>2006-10-21T11:22:26Z</time>
      </trkpt>
      <trkpt lat="44.01581" lon="4.79015">
        <ele>89.059326</ele>
        <time>2006-10-21T11:22:46Z</time>
      </trkpt>
      <trkpt lat="44.01576" lon="4.79055">
        <ele>87.136597</ele>
        <time>2006-10-21T11:23:04Z</time>
      </trkpt>
      <trkpt lat="44.01553" lon="4.79073">
        <ele>90.02063</ele>
        <time>2006-10-21T11:23:24Z</time>
      </trkpt>
      <trkpt lat="44.0155" lon="4.79083">
        <ele>90.501343</ele>
        <time>2006-10-21T11:23:35Z</time>
      </trkpt>
      <trkpt lat="44.0156" lon="4.79164">
        <ele>89.539917</ele>
        <time>2006-10-21T11:24:15Z</time>
      </trkpt>
      <trkpt lat="44.01577" lon="4.79191">
        <ele>87.136597</ele>
        <time>2006-10-21T11:24:28Z</time>
      </trkpt>
      <trkpt lat="44.01604" lon="4.79282">
        <ele>80.407471</ele>
        <time>2006-10-21T11:24:55Z</time>
      </trkpt>
      <trkpt lat="44.01605" lon="4.79311">
        <ele>82.810791</ele>
        <time>2006-10-21T11:25:03Z</time>
      </trkpt>
      <trkpt lat="44.01602" lon="4.79319">
        <ele>84.252686</ele>
        <time>2006-10-21T11:25:05Z</time>
      </trkpt>
      <trkpt lat="44.01569" lon="4.79386">
        <ele>84.252686</ele>
        <time>2006-10-21T11:25:23Z</time>
      </trkpt>
      <trkpt lat="44.01529" lon="4.79444">
        <ele>83.291382</ele>
        <time>2006-10-21T11:25:41Z</time>
      </trkpt>
      <trkpt lat="44.01498" lon="4.7949">
        <ele>79.446045</ele>
        <time>2006-10-21T11:25:55Z</time>
      </trkpt>
      <trkpt lat="44.01469" lon="4.79518">
        <ele>76.081421</ele>
        <time>2006-10-21T11:26:05Z</time>
      </trkpt>
      <trkpt lat="44.01466" lon="4.7952">
        <ele>76.562134</ele>
        <time>2006-10-21T11:26:06Z</time>
      </trkpt>
      <trkpt lat="44.01455" lon="4.79527">
        <ele>75.120239</ele>
        <time>2006-10-21T11:26:15Z</time>
      </trkpt>
      <trkpt lat="44.01453" lon="4.79535">
        <ele>73.678223</ele>
        <time>2006-10-21T11:26:18Z</time>
      </trkpt>
      <trkpt lat="44.01424" lon="4.79542">
        <ele>70.794189</ele>
        <time>2006-10-21T11:26:27Z</time>
      </trkpt>
      <trkpt lat="44.01383" lon="4.79575">
        <ele>70.794189</ele>
        <time>2006-10-21T11:26:43Z</time>
      </trkpt>
      <trkpt lat="44.01346" lon="4.79578">
        <ele>75.120239</ele>
        <time>2006-10-21T11:26:57Z</time>
      </trkpt>
      <trkpt lat="44.01305" lon="4.796">
        <ele>78.004028</ele>
        <time>2006-10-21T11:27:14Z</time>
      </trkpt>
      <trkpt lat="44.01273" lon="4.79626">
        <ele>77.042847</ele>
        <time>2006-10-21T11:27:35Z</time>
      </trkpt>
      <trkpt lat="44.01223" lon="4.79668">
        <ele>75.60083</ele>
        <time>2006-10-21T11:28:07Z</time>
      </trkpt>
      <trkpt lat="44.01206" lon="4.79695">
        <ele>74.639526</ele>
        <time>2006-10-21T11:28:20Z</time>
      </trkpt>
      <trkpt lat="44.01203" lon="4.79698">
        <ele>73.678223</ele>
        <time>2006-10-21T11:28:30Z</time>
      </trkpt>
      <trkpt lat="44.01199" lon="4.79703">
        <ele>73.678223</ele>
        <time>2006-10-21T11:28:39Z</time>
      </trkpt>
      <trkpt lat="44.01189" lon="4.79702">
        <ele>75.120239</ele>
        <time>2006-10-21T11:28:45Z</time>
      </trkpt>
      <trkpt lat="44.01175" lon="4.79702">
        <ele>75.120239</ele>
        <time>2006-10-21T11:28:51Z</time>
      </trkpt>
      <trkpt lat="44.01167" lon="4.79701">
        <ele>76.562134</ele>
        <time>2006-10-21T11:28:54Z</time>
      </trkpt>
      <trkpt lat="44.01148" lon="4.79683">
        <ele>77.523438</ele>
        <time>2006-10-21T11:29:04Z</time>
      </trkpt>
      <trkpt lat="44.01129" lon="4.79589">
        <ele>77.042847</ele>
        <time>2006-10-21T11:29:28Z</time>
      </trkpt>
      <trkpt lat="44.01126" lon="4.79572">
        <ele>77.523438</ele>
        <time>2006-10-21T11:29:32Z</time>
      </trkpt>
      <trkpt lat="44.01111" lon="4.79566">
        <ele>71.274902</ele>
        <time>2006-10-21T11:29:40Z</time>
      </trkpt>
      <trkpt lat="44.01103" lon="4.79566">
        <ele>67.910278</ele>
        <time>2006-10-21T11:29:43Z</time>
      </trkpt>
      <trkpt lat="44.01094" lon="4.79569">
        <ele>64.065063</ele>
        <time>2006-10-21T11:29:46Z</time>
      </trkpt>
      <trkpt lat="44.01083" lon="4.79574">
        <ele>60.700317</ele>
        <time>2006-10-21T11:29:49Z</time>
      </trkpt>
      <trkpt lat="44.01079" lon="4.79576">
        <ele>60.219727</ele>
        <time>2006-10-21T11:29:50Z</time>
      </trkpt>
      <trkpt lat="44.01067" lon="4.79571">
        <ele>58.77771</ele>
        <time>2006-10-21T11:29:56Z</time>
      </trkpt>
      <trkpt lat="44.01057" lon="4.79568">
        <ele>58.77771</ele>
        <time>2006-10-21T11:32:50Z</time>
      </trkpt>
      <trkpt lat="44.01058" lon="4.79569">
        <ele>59.258423</ele>
        <time>2006-10-21T11:34:09Z</time>
      </trkpt>
      <trkpt lat="44.01041" lon="4.79588">
        <ele>58.297119</ele>
        <time>2006-10-21T11:34:16Z</time>
      </trkpt>
      <trkpt lat="44.01018" lon="4.79603">
        <ele>56.374512</ele>
        <time>2006-10-21T11:34:23Z</time>
      </trkpt>
      <trkpt lat="44.01002" lon="4.79612">
        <ele>54.932373</ele>
        <time>2006-10-21T11:34:28Z</time>
      </trkpt>
      <trkpt lat="44.01" lon="4.79638">
        <ele>53.490479</ele>
        <time>2006-10-21T11:34:34Z</time>
      </trkpt>
      <trkpt lat="44.01024" lon="4.79706">
        <ele>49.164551</ele>
        <time>2006-10-21T11:34:46Z</time>
      </trkpt>
      <trkpt lat="44.01034" lon="4.7976">
        <ele>45.799927</ele>
        <time>2006-10-21T11:34:53Z</time>
      </trkpt>
      <trkpt lat="44.01054" lon="4.79843">
        <ele>42.916016</ele>
        <time>2006-10-21T11:35:03Z</time>
      </trkpt>
      <trkpt lat="44.01092" lon="4.79897">
        <ele>38.109375</ele>
        <time>2006-10-21T11:35:11Z</time>
      </trkpt>
      <trkpt lat="44.01096" lon="4.79905">
        <ele>38.109375</ele>
        <time>2006-10-21T11:35:12Z</time>
      </trkpt>
      <trkpt lat="44.01116" lon="4.79967">
        <ele>36.186768</ele>
        <time>2006-10-21T11:35:20Z</time>
      </trkpt>
      <trkpt lat="44.01109" lon="4.79991">
        <ele>34.744873</ele>
        <time>2006-10-21T11:35:23Z</time>
      </trkpt>
      <trkpt lat="44.011" lon="4.80021">
        <ele>33.302856</ele>
        <time>2006-10-21T11:35:27Z</time>
      </trkpt>
      <trkpt lat="44.0108" lon="4.80056">
        <ele>31.380127</ele>
        <time>2006-10-21T11:35:35Z</time>
      </trkpt>
      <trkpt lat="44.01051" lon="4.8007">
        <ele>32.341553</ele>
        <time>2006-10-21T11:35:45Z</time>
      </trkpt>
      <trkpt lat="44.00986" lon="4.8008">
        <ele>32.822266</ele>
        <time>2006-10-21T11:36:03Z</time>
      </trkpt>
      <trkpt lat="44.00912" lon="4.80114">
        <ele>33.302856</ele>
        <time>2006-10-21T11:36:23Z</time>
      </trkpt>
      <trkpt lat="44.00857" lon="4.80096">
        <ele>34.744873</ele>
        <time>2006-10-21T11:36:39Z</time>
      </trkpt>
      <trkpt lat="44.00801" lon="4.80054">
        <ele>35.225464</ele>
        <time>2006-10-21T11:36:58Z</time>
      </trkpt>
      <trkpt lat="44.00746" lon="4.79977">
        <ele>37.628662</ele>
        <time>2006-10-21T11:37:20Z</time>
      </trkpt>
      <trkpt lat="44.0071" lon="4.79888">
        <ele>40.512817</ele>
        <time>2006-10-21T11:37:43Z</time>
      </trkpt>
      <trkpt lat="44.00711" lon="4.79853">
        <ele>40.993408</ele>
        <time>2006-10-21T11:37:51Z</time>
      </trkpt>
      <trkpt lat="44.00711" lon="4.79709">
        <ele>43.877319</ele>
        <time>2006-10-21T11:38:21Z</time>
      </trkpt>
      <trkpt lat="44.00703" lon="4.79664">
        <ele>45.799927</ele>
        <time>2006-10-21T11:38:31Z</time>
      </trkpt>
      <trkpt lat="44.00689" lon="4.79637">
        <ele>47.722534</ele>
        <time>2006-10-21T11:38:38Z</time>
      </trkpt>
      <trkpt lat="44.00636" lon="4.79532">
        <ele>51.567871</ele>
        <time>2006-10-21T11:39:06Z</time>
      </trkpt>
      <trkpt lat="44.0059" lon="4.79378">
        <ele>55.413086</ele>
        <time>2006-10-21T11:39:46Z</time>
      </trkpt>
      <trkpt lat="44.00561" lon="4.79261">
        <ele>58.77771</ele>
        <time>2006-10-21T11:40:12Z</time>
      </trkpt>
      <trkpt lat="44.00525" lon="4.79168">
        <ele>60.700317</ele>
        <time>2006-10-21T11:40:36Z</time>
      </trkpt>
      <trkpt lat="44.00524" lon="4.79166">
        <ele>59.739136</ele>
        <time>2006-10-21T11:40:37Z</time>
      </trkpt>
      <trkpt lat="44.00509" lon="4.79176">
        <ele>62.622925</ele>
        <time>2006-10-21T11:40:46Z</time>
      </trkpt>
      <trkpt lat="44.00471" lon="4.79213">
        <ele>65.50708</ele>
        <time>2006-10-21T11:41:13Z</time>
      </trkpt>
      <trkpt lat="44.00458" lon="4.7923">
        <ele>66.948975</ele>
        <time>2006-10-21T11:41:23Z</time>
      </trkpt>
      <trkpt lat="44.00431" lon="4.79218">
        <ele>68.390869</ele>
        <time>2006-10-21T11:41:39Z</time>
      </trkpt>
      <trkpt lat="44.00414" lon="4.79207">
        <ele>68.390869</ele>
        <time>2006-10-21T11:41:49Z</time>
      </trkpt>
      <trkpt lat="44.00389" lon="4.79209">
        <ele>70.313477</ele>
        <time>2006-10-21T11:42:06Z</time>
      </trkpt>
      <trkpt lat="44.00387" lon="4.79183">
        <ele>70.313477</ele>
        <time>2006-10-21T11:42:18Z</time>
      </trkpt>
      <trkpt lat="44.00387" lon="4.79173">
        <ele>70.313477</ele>
        <time>2006-10-21T11:42:22Z</time>
      </trkpt>
      <trkpt lat="44.00384" lon="4.79151">
        <ele>69.352295</ele>
        <time>2006-10-21T11:42:32Z</time>
      </trkpt>
      <trkpt lat="44.00356" lon="4.79118">
        <ele>71.274902</ele>
        <time>2006-10-21T11:42:48Z</time>
      </trkpt>
      <trkpt lat="44.0032" lon="4.79072">
        <ele>71.755493</ele>
        <time>2006-10-21T11:43:10Z</time>
      </trkpt>
      <trkpt lat="44.00319" lon="4.79071">
        <ele>71.755493</ele>
        <time>2006-10-21T11:43:22Z</time>
      </trkpt>
      <trkpt lat="44.00314" lon="4.79061">
        <ele>71.755493</ele>
        <time>2006-10-21T11:43:34Z</time>
      </trkpt>
      <trkpt lat="44.00298" lon="4.79034">
        <ele>71.755493</ele>
        <time>2006-10-21T11:44:09Z</time>
      </trkpt>
      <trkpt lat="44.0029" lon="4.79024">
        <ele>72.716919</ele>
        <time>2006-10-21T11:44:15Z</time>
      </trkpt>
      <trkpt lat="44.00266" lon="4.79009">
        <ele>73.678223</ele>
        <time>2006-10-21T11:44:29Z</time>
      </trkpt>
      <trkpt lat="44.00233" lon="4.78977">
        <ele>75.120239</ele>
        <time>2006-10-21T11:44:50Z</time>
      </trkpt>
      <trkpt lat="44.00222" lon="4.78972">
        <ele>76.081421</ele>
        <time>2006-10-21T11:45:01Z</time>
      </trkpt>
      <trkpt lat="44.0021" lon="4.78972">
        <ele>78.484741</ele>
        <time>2006-10-21T11:45:07Z</time>
      </trkpt>
      <trkpt lat="44.00176" lon="4.78988">
        <ele>80.888184</ele>
        <time>2006-10-21T11:45:21Z</time>
      </trkpt>
      <trkpt lat="44.00148" lon="4.79013">
        <ele>84.252686</ele>
        <time>2006-10-21T11:45:36Z</time>
      </trkpt>
      <trkpt lat="44.00103" lon="4.79018">
        <ele>85.213989</ele>
        <time>2006-10-21T11:45:54Z</time>
      </trkpt>
      <trkpt lat="44.00067" lon="4.79008">
        <ele>84.252686</ele>
        <time>2006-10-21T11:46:03Z</time>
      </trkpt>
      <trkpt lat="44.0002" lon="4.79028">
        <ele>86.175293</ele>
        <time>2006-10-21T11:46:15Z</time>
      </trkpt>
      <trkpt lat="43.99971" lon="4.79064">
        <ele>89.539917</ele>
        <time>2006-10-21T11:46:29Z</time>
      </trkpt>
      <trkpt lat="43.99923" lon="4.79105">
        <ele>91.943237</ele>
        <time>2006-10-21T11:46:50Z</time>
      </trkpt>
      <trkpt lat="43.99884" lon="4.79125">
        <ele>94.346558</ele>
        <time>2006-10-21T11:47:08Z</time>
      </trkpt>
      <trkpt lat="43.99866" lon="4.79126">
        <ele>96.269287</ele>
        <time>2006-10-21T11:47:16Z</time>
      </trkpt>
      <trkpt lat="43.99837" lon="4.79126">
        <ele>97.711182</ele>
        <time>2006-10-21T11:47:28Z</time>
      </trkpt>
      <trkpt lat="43.99817" lon="4.7914">
        <ele>98.672485</ele>
        <time>2006-10-21T11:47:36Z</time>
      </trkpt>
      <trkpt lat="43.99772" lon="4.79168">
        <ele>99.633789</ele>
        <time>2006-10-21T11:47:53Z</time>
      </trkpt>
      <trkpt lat="43.99686" lon="4.79208">
        <ele>103.479004</ele>
        <time>2006-10-21T11:48:22Z</time>
      </trkpt>
      <trkpt lat="43.99665" lon="4.79219">
        <ele>103.479004</ele>
        <time>2006-10-21T11:48:29Z</time>
      </trkpt>
      <trkpt lat="43.99629" lon="4.79233">
        <ele>104.921021</ele>
        <time>2006-10-21T11:48:43Z</time>
      </trkpt>
      <trkpt lat="43.99577" lon="4.7926">
        <ele>102.998291</ele>
        <time>2006-10-21T11:49:02Z</time>
      </trkpt>
      <trkpt lat="43.99489" lon="4.79294">
        <ele>100.595093</ele>
        <time>2006-10-21T11:49:29Z</time>
      </trkpt>
      <trkpt lat="43.99487" lon="4.79295">
        <ele>100.595093</ele>
        <time>2006-10-21T11:49:30Z</time>
      </trkpt>
      <trkpt lat="43.99487" lon="4.79299">
        <ele>100.595093</ele>
        <time>2006-10-21T11:49:37Z</time>
      </trkpt>
      <trkpt lat="43.99489" lon="4.7929">
        <ele>100.595093</ele>
        <time>2006-10-21T11:49:49Z</time>
      </trkpt>
      <trkpt lat="43.99486" lon="4.79294">
        <ele>101.075684</ele>
        <time>2006-10-21T11:50:33Z</time>
      </trkpt>
      <trkpt lat="43.99473" lon="4.79304">
        <ele>100.114502</ele>
        <time>2006-10-21T11:50:41Z</time>
      </trkpt>
      <trkpt lat="43.99431" lon="4.79314">
        <ele>99.153076</ele>
        <time>2006-10-21T11:50:55Z</time>
      </trkpt>
      <trkpt lat="43.99384" lon="4.79337">
        <ele>98.672485</ele>
        <time>2006-10-21T11:51:08Z</time>
      </trkpt>
      <trkpt lat="43.99369" lon="4.79326">
        <ele>97.711182</ele>
        <time>2006-10-21T11:51:12Z</time>
      </trkpt>
      <trkpt lat="43.99337" lon="4.79271">
        <ele>100.595093</ele>
        <time>2006-10-21T11:51:26Z</time>
      </trkpt>
      <trkpt lat="43.99322" lon="4.7925">
        <ele>103.959717</ele>
        <time>2006-10-21T11:51:37Z</time>
      </trkpt>
      <trkpt lat="43.99318" lon="4.79227">
        <ele>106.363037</ele>
        <time>2006-10-21T11:51:47Z</time>
      </trkpt>
      <trkpt lat="43.99318" lon="4.79211">
        <ele>109.727661</ele>
        <time>2006-10-21T11:51:56Z</time>
      </trkpt>
      <trkpt lat="43.99324" lon="4.79186">
        <ele>112.130981</ele>
        <time>2006-10-21T11:52:11Z</time>
      </trkpt>
      <trkpt lat="43.99327" lon="4.79153">
        <ele>108.766235</ele>
        <time>2006-10-21T11:52:26Z</time>
      </trkpt>
      <trkpt lat="43.99314" lon="4.79126">
        <ele>106.843628</ele>
        <time>2006-10-21T11:52:32Z</time>
      </trkpt>
      <trkpt lat="43.9929" lon="4.79088">
        <ele>107.324341</ele>
        <time>2006-10-21T11:52:44Z</time>
      </trkpt>
      <trkpt lat="43.99275" lon="4.79067">
        <ele>106.363037</ele>
        <time>2006-10-21T11:52:52Z</time>
      </trkpt>
      <trkpt lat="43.9925" lon="4.79088">
        <ele>103.959717</ele>
        <time>2006-10-21T11:53:00Z</time>
      </trkpt>
      <trkpt lat="43.99221" lon="4.79074">
        <ele>101.075684</ele>
        <time>2006-10-21T11:53:12Z</time>
      </trkpt>
      <trkpt lat="43.99206" lon="4.79062">
        <ele>99.153076</ele>
        <time>2006-10-21T11:53:16Z</time>
      </trkpt>
      <trkpt lat="43.99194" lon="4.79031">
        <ele>98.191895</ele>
        <time>2006-10-21T11:53:22Z</time>
      </trkpt>
      <trkpt lat="43.99188" lon="4.79007">
        <ele>96.269287</ele>
        <time>2006-10-21T11:53:26Z</time>
      </trkpt>
      <trkpt lat="43.99173" lon="4.79004">
        <ele>94.346558</ele>
        <time>2006-10-21T11:53:31Z</time>
      </trkpt>
      <trkpt lat="43.99155" lon="4.79001">
        <ele>93.385132</ele>
        <time>2006-10-21T11:53:37Z</time>
      </trkpt>
      <trkpt lat="43.99157" lon="4.78995">
        <ele>93.865845</ele>
        <time>2006-10-21T11:53:42Z</time>
      </trkpt>
      <trkpt lat="43.99156" lon="4.78986">
        <ele>93.385132</ele>
        <time>2006-10-21T11:54:00Z</time>
      </trkpt>
      <trkpt lat="43.99147" lon="4.78967">
        <ele>93.385132</ele>
        <time>2006-10-21T11:54:10Z</time>
      </trkpt>
      <trkpt lat="43.99135" lon="4.78938">
        <ele>93.385132</ele>
        <time>2006-10-21T11:54:19Z</time>
      </trkpt>
      <trkpt lat="43.99099" lon="4.7883">
        <ele>97.711182</ele>
        <time>2006-10-21T11:54:42Z</time>
      </trkpt>
      <trkpt lat="43.99087" lon="4.78806">
        <ele>99.153076</ele>
        <time>2006-10-21T11:54:50Z</time>
      </trkpt>
      <trkpt lat="43.99067" lon="4.7878">
        <ele>95.788452</ele>
        <time>2006-10-21T11:55:02Z</time>
      </trkpt>
      <trkpt lat="43.99059" lon="4.78755">
        <ele>91.943237</ele>
        <time>2006-10-21T11:55:07Z</time>
      </trkpt>
      <trkpt lat="43.99028" lon="4.78715">
        <ele>86.175293</ele>
        <time>2006-10-21T11:55:13Z</time>
      </trkpt>
      <trkpt lat="43.98997" lon="4.78661">
        <ele>85.69458</ele>
        <time>2006-10-21T11:55:21Z</time>
      </trkpt>
      <trkpt lat="43.98988" lon="4.78642">
        <ele>85.69458</ele>
        <time>2006-10-21T11:55:24Z</time>
      </trkpt>
      <trkpt lat="43.98977" lon="4.78584">
        <ele>87.136597</ele>
        <time>2006-10-21T11:55:34Z</time>
      </trkpt>
      <trkpt lat="43.98976" lon="4.78536">
        <ele>85.69458</ele>
        <time>2006-10-21T11:55:44Z</time>
      </trkpt>
      <trkpt lat="43.9898" lon="4.78525">
        <ele>85.213989</ele>
        <time>2006-10-21T11:55:48Z</time>
      </trkpt>
      <trkpt lat="43.98973" lon="4.78478">
        <ele>87.617188</ele>
        <time>2006-10-21T11:55:57Z</time>
      </trkpt>
      <trkpt lat="43.98972" lon="4.78452">
        <ele>88.578735</ele>
        <time>2006-10-21T11:56:04Z</time>
      </trkpt>
      <trkpt lat="43.98971" lon="4.78435">
        <ele>89.059326</ele>
        <time>2006-10-21T11:56:08Z</time>
      </trkpt>
      <trkpt lat="43.98945" lon="4.78404">
        <ele>86.656006</ele>
        <time>2006-10-21T11:56:16Z</time>
      </trkpt>
      <trkpt lat="43.98905" lon="4.78396">
        <ele>84.252686</ele>
        <time>2006-10-21T11:56:27Z</time>
      </trkpt>
      <trkpt lat="43.98889" lon="4.7836">
        <ele>83.771973</ele>
        <time>2006-10-21T11:56:35Z</time>
      </trkpt>
      <trkpt lat="43.98864" lon="4.78331">
        <ele>82.810791</ele>
        <time>2006-10-21T11:56:42Z</time>
      </trkpt>
      <trkpt lat="43.98842" lon="4.78332">
        <ele>82.330078</ele>
        <time>2006-10-21T11:56:47Z</time>
      </trkpt>
      <trkpt lat="43.9879" lon="4.78366">
        <ele>81.368774</ele>
        <time>2006-10-21T11:57:01Z</time>
      </trkpt>
      <trkpt lat="43.98767" lon="4.78361">
        <ele>82.330078</ele>
        <time>2006-10-21T11:57:09Z</time>
      </trkpt>
      <trkpt lat="43.98768" lon="4.78339">
        <ele>82.810791</ele>
        <time>2006-10-21T11:57:21Z</time>
      </trkpt>
      <trkpt lat="43.98775" lon="4.783">
        <ele>82.330078</ele>
        <time>2006-10-21T11:57:28Z</time>
      </trkpt>
      <trkpt lat="43.98783" lon="4.78261">
        <ele>83.291382</ele>
        <time>2006-10-21T11:57:35Z</time>
      </trkpt>
      <trkpt lat="43.98795" lon="4.78254">
        <ele>83.291382</ele>
        <time>2006-10-21T11:57:41Z</time>
      </trkpt>
      <trkpt lat="43.98846" lon="4.78248">
        <ele>83.771973</ele>
        <time>2006-10-21T11:57:54Z</time>
      </trkpt>
      <trkpt lat="43.98882" lon="4.78228">
        <ele>82.810791</ele>
        <time>2006-10-21T11:58:05Z</time>
      </trkpt>
      <trkpt lat="43.9891" lon="4.7822">
        <ele>83.291382</ele>
        <time>2006-10-21T11:58:14Z</time>
      </trkpt>
      <trkpt lat="43.98928" lon="4.78176">
        <ele>83.771973</ele>
        <time>2006-10-21T11:58:26Z</time>
      </trkpt>
      <trkpt lat="43.98936" lon="4.78135">
        <ele>87.617188</ele>
        <time>2006-10-21T11:58:35Z</time>
      </trkpt>
      <trkpt lat="43.98937" lon="4.7813">
        <ele>87.617188</ele>
        <time>2006-10-21T11:58:36Z</time>
      </trkpt>
      <trkpt lat="43.98948" lon="4.78108">
        <ele>89.539917</ele>
        <time>2006-10-21T11:58:45Z</time>
      </trkpt>
      <trkpt lat="43.98996" lon="4.78095">
        <ele>91.462524</ele>
        <time>2006-10-21T11:59:02Z</time>
      </trkpt>
      <trkpt lat="43.99042" lon="4.78073">
        <ele>94.346558</ele>
        <time>2006-10-21T11:59:18Z</time>
      </trkpt>
      <trkpt lat="43.99066" lon="4.78061">
        <ele>97.711182</ele>
        <time>2006-10-21T11:59:28Z</time>
      </trkpt>
      <trkpt lat="43.99087" lon="4.78057">
        <ele>99.153076</ele>
        <time>2006-10-21T11:59:37Z</time>
      </trkpt>
      <trkpt lat="43.99124" lon="4.78047">
        <ele>102.5177</ele>
        <time>2006-10-21T11:59:55Z</time>
      </trkpt>
      <trkpt lat="43.9914" lon="4.78037">
        <ele>102.998291</ele>
        <time>2006-10-21T12:00:09Z</time>
      </trkpt>
      <trkpt lat="43.99139" lon="4.78035">
        <ele>102.5177</ele>
        <time>2006-10-21T12:00:24Z</time>
      </trkpt>
      <trkpt lat="43.99127" lon="4.78018">
        <ele>102.037109</ele>
        <time>2006-10-21T12:00:30Z</time>
      </trkpt>
      <trkpt lat="43.99113" lon="4.78">
        <ele>101.075684</ele>
        <time>2006-10-21T12:00:35Z</time>
      </trkpt>
      <trkpt lat="43.99076" lon="4.77962">
        <ele>99.153076</ele>
        <time>2006-10-21T12:00:47Z</time>
      </trkpt>
      <trkpt lat="43.99026" lon="4.77951">
        <ele>98.672485</ele>
        <time>2006-10-21T12:00:58Z</time>
      </trkpt>
      <trkpt lat="43.99005" lon="4.77933">
        <ele>96.269287</ele>
        <time>2006-10-21T12:01:03Z</time>
      </trkpt>
      <trkpt lat="43.98988" lon="4.77892">
        <ele>97.230469</ele>
        <time>2006-10-21T12:01:09Z</time>
      </trkpt>
      <trkpt lat="43.98961" lon="4.77887">
        <ele>97.711182</ele>
        <time>2006-10-21T12:01:15Z</time>
      </trkpt>
      <trkpt lat="43.98899" lon="4.7787">
        <ele>98.672485</ele>
        <time>2006-10-21T12:01:31Z</time>
      </trkpt>
      <trkpt lat="43.98847" lon="4.77868">
        <ele>98.672485</ele>
        <time>2006-10-21T12:01:43Z</time>
      </trkpt>
      <trkpt lat="43.98826" lon="4.77851">
        <ele>98.672485</ele>
        <time>2006-10-21T12:01:48Z</time>
      </trkpt>
      <trkpt lat="43.98806" lon="4.77823">
        <ele>100.595093</ele>
        <time>2006-10-21T12:01:56Z</time>
      </trkpt>
      <trkpt lat="43.98779" lon="4.77803">
        <ele>103.479004</ele>
        <time>2006-10-21T12:02:09Z</time>
      </trkpt>
      <trkpt lat="43.98767" lon="4.77796">
        <ele>103.479004</ele>
        <time>2006-10-21T12:02:13Z</time>
      </trkpt>
      <trkpt lat="43.98735" lon="4.77763">
        <ele>105.882446</ele>
        <time>2006-10-21T12:02:26Z</time>
      </trkpt>
      <trkpt lat="43.98703" lon="4.77737">
        <ele>108.285645</ele>
        <time>2006-10-21T12:02:38Z</time>
      </trkpt>
      <trkpt lat="43.98691" lon="4.77743">
        <ele>108.285645</ele>
        <time>2006-10-21T12:02:42Z</time>
      </trkpt>
      <trkpt lat="43.9865" lon="4.77765">
        <ele>105.882446</ele>
        <time>2006-10-21T12:02:54Z</time>
      </trkpt>
      <trkpt lat="43.98623" lon="4.77752">
        <ele>106.363037</ele>
        <time>2006-10-21T12:03:04Z</time>
      </trkpt>
      <trkpt lat="43.98589" lon="4.77733">
        <ele>109.246948</ele>
        <time>2006-10-21T12:03:15Z</time>
      </trkpt>
      <trkpt lat="43.98556" lon="4.77697">
        <ele>113.092285</ele>
        <time>2006-10-21T12:03:29Z</time>
      </trkpt>
      <trkpt lat="43.98536" lon="4.77692">
        <ele>113.092285</ele>
        <time>2006-10-21T12:03:36Z</time>
      </trkpt>
      <trkpt lat="43.98478" lon="4.77709">
        <ele>111.169556</ele>
        <time>2006-10-21T12:03:53Z</time>
      </trkpt>
      <trkpt lat="43.98465" lon="4.77689">
        <ele>111.169556</ele>
        <time>2006-10-21T12:03:59Z</time>
      </trkpt>
      <trkpt lat="43.98461" lon="4.77662">
        <ele>112.130981</ele>
        <time>2006-10-21T12:04:07Z</time>
      </trkpt>
      <trkpt lat="43.9846" lon="4.77661">
        <ele>113.092285</ele>
        <time>2006-10-21T12:04:15Z</time>
      </trkpt>
      <trkpt lat="43.98463" lon="4.77668">
        <ele>112.611572</ele>
        <time>2006-10-21T12:05:31Z</time>
      </trkpt>
      <trkpt lat="43.98457" lon="4.77665">
        <ele>112.611572</ele>
        <time>2006-10-21T12:09:35Z</time>
      </trkpt>
      <trkpt lat="43.98445" lon="4.77673">
        <ele>112.611572</ele>
        <time>2006-10-21T12:09:46Z</time>
      </trkpt>
      <trkpt lat="43.98423" lon="4.77662">
        <ele>113.092285</ele>
        <time>2006-10-21T12:10:02Z</time>
      </trkpt>
      <trkpt lat="43.98412" lon="4.77651">
        <ele>115.014893</ele>
        <time>2006-10-21T12:10:10Z</time>
      </trkpt>
      <trkpt lat="43.98398" lon="4.77636">
        <ele>116.456787</ele>
        <time>2006-10-21T12:10:20Z</time>
      </trkpt>
      <trkpt lat="43.98374" lon="4.77622">
        <ele>115.495605</ele>
        <time>2006-10-21T12:10:34Z</time>
      </trkpt>
      <trkpt lat="43.98376" lon="4.77615">
        <ele>117.418213</ele>
        <time>2006-10-21T12:10:40Z</time>
      </trkpt>
      <trkpt lat="43.98369" lon="4.77599">
        <ele>118.860107</ele>
        <time>2006-10-21T12:10:49Z</time>
      </trkpt>
      <trkpt lat="43.98362" lon="4.7758">
        <ele>120.302124</ele>
        <time>2006-10-21T12:10:57Z</time>
      </trkpt>
      <trkpt lat="43.98362" lon="4.77577">
        <ele>120.302124</ele>
        <time>2006-10-21T12:10:58Z</time>
      </trkpt>
      <trkpt lat="43.98351" lon="4.77558">
        <ele>120.782837</ele>
        <time>2006-10-21T12:11:08Z</time>
      </trkpt>
      <trkpt lat="43.98338" lon="4.77536">
        <ele>121.744141</ele>
        <time>2006-10-21T12:11:18Z</time>
      </trkpt>
      <trkpt lat="43.98332" lon="4.77516">
        <ele>122.705444</ele>
        <time>2006-10-21T12:11:25Z</time>
      </trkpt>
      <trkpt lat="43.98326" lon="4.775">
        <ele>124.147339</ele>
        <time>2006-10-21T12:11:31Z</time>
      </trkpt>
      <trkpt lat="43.98315" lon="4.77496">
        <ele>124.147339</ele>
        <time>2006-10-21T12:11:38Z</time>
      </trkpt>
      <trkpt lat="43.98303" lon="4.77491">
        <ele>122.705444</ele>
        <time>2006-10-21T12:11:45Z</time>
      </trkpt>
      <trkpt lat="43.98292" lon="4.77503">
        <ele>123.666748</ele>
        <time>2006-10-21T12:11:53Z</time>
      </trkpt>
      <trkpt lat="43.98271" lon="4.77487">
        <ele>122.224731</ele>
        <time>2006-10-21T12:12:03Z</time>
      </trkpt>
      <trkpt lat="43.98239" lon="4.77482">
        <ele>120.302124</ele>
        <time>2006-10-21T12:12:12Z</time>
      </trkpt>
      <trkpt lat="43.98227" lon="4.77485">
        <ele>120.302124</ele>
        <time>2006-10-21T12:12:16Z</time>
      </trkpt>
      <trkpt lat="43.98204" lon="4.77481">
        <ele>119.821411</ele>
        <time>2006-10-21T12:12:27Z</time>
      </trkpt>
      <trkpt lat="43.98193" lon="4.77442">
        <ele>119.34082</ele>
        <time>2006-10-21T12:12:35Z</time>
      </trkpt>
      <trkpt lat="43.98174" lon="4.77435">
        <ele>118.860107</ele>
        <time>2006-10-21T12:12:41Z</time>
      </trkpt>
      <trkpt lat="43.98132" lon="4.77446">
        <ele>118.860107</ele>
        <time>2006-10-21T12:12:53Z</time>
      </trkpt>
      <trkpt lat="43.9811" lon="4.77431">
        <ele>119.34082</ele>
        <time>2006-10-21T12:13:04Z</time>
      </trkpt>
      <trkpt lat="43.98109" lon="4.77403">
        <ele>122.224731</ele>
        <time>2006-10-21T12:13:13Z</time>
      </trkpt>
      <trkpt lat="43.98109" lon="4.77366">
        <ele>124.628052</ele>
        <time>2006-10-21T12:13:28Z</time>
      </trkpt>
      <trkpt lat="43.98103" lon="4.77346">
        <ele>125.108765</ele>
        <time>2006-10-21T12:13:37Z</time>
      </trkpt>
      <trkpt lat="43.98086" lon="4.77286">
        <ele>127.031372</ele>
        <time>2006-10-21T12:13:58Z</time>
      </trkpt>
      <trkpt lat="43.98084" lon="4.77236">
        <ele>129.434692</ele>
        <time>2006-10-21T12:14:15Z</time>
      </trkpt>
      <trkpt lat="43.9808" lon="4.77211">
        <ele>130.876709</ele>
        <time>2006-10-21T12:14:25Z</time>
      </trkpt>
      <trkpt lat="43.98081" lon="4.77208">
        <ele>130.876709</ele>
        <time>2006-10-21T12:14:26Z</time>
      </trkpt>
      <trkpt lat="43.98103" lon="4.77147">
        <ele>131.837891</ele>
        <time>2006-10-21T12:14:44Z</time>
      </trkpt>
      <trkpt lat="43.98113" lon="4.77115">
        <ele>131.837891</ele>
        <time>2006-10-21T12:14:53Z</time>
      </trkpt>
      <trkpt lat="43.98126" lon="4.77076">
        <ele>130.395996</ele>
        <time>2006-10-21T12:15:02Z</time>
      </trkpt>
      <trkpt lat="43.98122" lon="4.77029">
        <ele>128.954102</ele>
        <time>2006-10-21T12:15:11Z</time>
      </trkpt>
      <trkpt lat="43.98124" lon="4.7699">
        <ele>131.3573</ele>
        <time>2006-10-21T12:15:21Z</time>
      </trkpt>
      <trkpt lat="43.98127" lon="4.76957">
        <ele>132.318604</ele>
        <time>2006-10-21T12:15:31Z</time>
      </trkpt>
      <trkpt lat="43.98131" lon="4.76938">
        <ele>134.241211</ele>
        <time>2006-10-21T12:15:37Z</time>
      </trkpt>
      <trkpt lat="43.98137" lon="4.76915">
        <ele>134.721924</ele>
        <time>2006-10-21T12:15:45Z</time>
      </trkpt>
      <trkpt lat="43.98128" lon="4.7685">
        <ele>135.202515</ele>
        <time>2006-10-21T12:16:03Z</time>
      </trkpt>
      <trkpt lat="43.98124" lon="4.7682">
        <ele>135.683105</ele>
        <time>2006-10-21T12:16:11Z</time>
      </trkpt>
      <trkpt lat="43.98092" lon="4.76798">
        <ele>137.125244</ele>
        <time>2006-10-21T12:16:25Z</time>
      </trkpt>
      <trkpt lat="43.98058" lon="4.76806">
        <ele>138.086548</ele>
        <time>2006-10-21T12:16:38Z</time>
      </trkpt>
      <trkpt lat="43.98021" lon="4.76824">
        <ele>135.683105</ele>
        <time>2006-10-21T12:16:48Z</time>
      </trkpt>
      <trkpt lat="43.97997" lon="4.76828">
        <ele>135.683105</ele>
        <time>2006-10-21T12:16:53Z</time>
      </trkpt>
      <trkpt lat="43.9795" lon="4.76857">
        <ele>133.279907</ele>
        <time>2006-10-21T12:17:05Z</time>
      </trkpt>
      <trkpt lat="43.97904" lon="4.7688">
        <ele>131.3573</ele>
        <time>2006-10-21T12:17:16Z</time>
      </trkpt>
      <trkpt lat="43.97885" lon="4.76873">
        <ele>131.837891</ele>
        <time>2006-10-21T12:17:24Z</time>
      </trkpt>
      <trkpt lat="43.97866" lon="4.76879">
        <ele>130.876709</ele>
        <time>2006-10-21T12:17:29Z</time>
      </trkpt>
      <trkpt lat="43.9785" lon="4.76885">
        <ele>131.3573</ele>
        <time>2006-10-21T12:17:33Z</time>
      </trkpt>
      <trkpt lat="43.97833" lon="4.76922">
        <ele>129.434692</ele>
        <time>2006-10-21T12:17:38Z</time>
      </trkpt>
      <trkpt lat="43.97826" lon="4.76941">
        <ele>126.550659</ele>
        <time>2006-10-21T12:17:40Z</time>
      </trkpt>
      <trkpt lat="43.97779" lon="4.76999">
        <ele>122.224731</ele>
        <time>2006-10-21T12:17:49Z</time>
      </trkpt>
      <trkpt lat="43.97715" lon="4.77091">
        <ele>119.34082</ele>
        <time>2006-10-21T12:18:02Z</time>
      </trkpt>
      <trkpt lat="43.97706" lon="4.77174">
        <ele>116.456787</ele>
        <time>2006-10-21T12:18:10Z</time>
      </trkpt>
      <trkpt lat="43.97718" lon="4.77213">
        <ele>115.495605</ele>
        <time>2006-10-21T12:18:18Z</time>
      </trkpt>
      <trkpt lat="43.97746" lon="4.77197">
        <ele>116.9375</ele>
        <time>2006-10-21T12:18:28Z</time>
      </trkpt>
      <trkpt lat="43.97755" lon="4.77186">
        <ele>116.9375</ele>
        <time>2006-10-21T12:18:33Z</time>
      </trkpt>
      <trkpt lat="43.97765" lon="4.77168">
        <ele>117.418213</ele>
        <time>2006-10-21T12:18:45Z</time>
      </trkpt>
    </trkseg>
  </trk>
</gpx>